Observation data for Guadalupe Mtns Park on 09/13/2017      Previous  Date  Next       Current Mesonet Observations  Soil Data  Daily Summary Page  Observations in Plain Language
KGU1 130501Z 25007KT 24/M02 A3013 RMK A01 T02411015  RH  018%=      5-min Rain = 0
KGU1 130502Z 25007KT 24/M01 A3013 RMK A01 T02411013  RH  019%=      5-min Rain = 0
KGU1 130503Z 26006KT 24/M01 A3013 RMK A01 T02401012  RH  019%=      5-min Rain = 0
KGU1 130504Z 26006KT 24/M01 A3013 RMK A01 T02371009  RH  020%=      5-min Rain = 0
KGU1 130505Z 27007KT 24/M01 A3013 RMK A01 T02351007  RH  020%=      5-min Rain = 0
KGU1 130506Z 26006KT 23/M01 A3013 RMK A01 T02331008  RH  020%=      5-min Rain = 0
KGU1 130507Z 26006KT 23/M01 A3013 RMK A01 T02321010  RH  020%=      5-min Rain = 0
KGU1 130508Z 26007KT 23/M01 A3013 RMK A01 T02331010  RH  020%=      5-min Rain = 0
KGU1 130509Z 26007KT 23/M01 A3013 RMK A01 T02321012  RH  020%=      5-min Rain = 0
KGU1 130510Z 26006KT 23/M01 A3013 RMK A01 T02321011  RH  020%=      5-min Rain = 0
KGU1 130511Z 26006KT 23/M01 A3013 RMK A01 T02321009  RH  020%=      5-min Rain = 0
KGU1 130512Z 25006KT 23/M01 A3013 RMK A01 T02321009  RH  020%=      5-min Rain = 0
KGU1 130513Z 25005KT 23/M01 A3013 RMK A01 T02311010  RH  020%=      5-min Rain = 0
KGU1 130514Z 25005KT 23/M01 A3013 RMK A01 T02311011  RH  020%=      5-min Rain = 0
KGU1 130515Z 25005KT 23/M01 A3013 RMK A01 T02301011  RH  020%=      5-min Rain = 0
KGU1 130516Z 25005KT 23/M01 A3013 RMK A01 T02301010  RH  020%=      5-min Rain = 0
KGU1 130517Z 25006KT 23/M01 A3013 RMK A01 T02291010  RH  020%=      5-min Rain = 0
KGU1 130518Z 25006KT 23/M01 A3013 RMK A01 T02291010  RH  021%=      5-min Rain = 0
KGU1 130519Z 26006KT 23/M01 A3013 RMK A01 T02291009  RH  021%=      5-min Rain = 0
KGU1 130520Z 26006KT 23/M01 A3013 RMK A01 T02281007  RH  021%=      5-min Rain = 0
KGU1 130521Z 26006KT 23/M01 A3013 RMK A01 T02271006  RH  021%=      5-min Rain = 0
KGU1 130522Z 26006KT 23/M01 A3013 RMK A01 T02261005  RH  022%=      5-min Rain = 0
KGU1 130523Z 26005KT 22/M00 A3013 RMK A01 T02241003  RH  022%=      5-min Rain = 0
KGU1 130524Z 26006KT 22/M00 A3013 RMK A01 T02221003  RH  023%=      5-min Rain = 0
KGU1 130525Z 26006KT 22/M00 A3013 RMK A01 T02201003  RH  023%=      5-min Rain = 0
KGU1 130526Z 27006KT 22/M00 A3012 RMK A01 T02191003  RH  023%=      5-min Rain = 0
KGU1 130527Z 27006KT 22/M00 A3012 RMK A01 T02171002  RH  023%=      5-min Rain = 0
KGU1 130528Z 28007KT 22/M00 A3012 RMK A01 T02161003  RH  023%=      5-min Rain = 0
KGU1 130529Z 28007KT 22/M00 A3012 RMK A01 T02171003  RH  023%=      5-min Rain = 0
KGU1 130530Z 28006KT 22/M00 A3012 RMK A01 T02171002  RH  024%=      5-min Rain = 0
KGU1 130531Z 28007KT 22/M00 A3012 RMK A01 T02161002  RH  024%=      5-min Rain = 0
KGU1 130532Z 27006KT 22/M00 A3012 RMK A01 T02151002  RH  024%=      5-min Rain = 0
KGU1 130533Z 27006KT 22/M00 A3012 RMK A01 T02161003  RH  023%=      5-min Rain = 0
KGU1 130534Z 27006KT 22/M00 A3012 RMK A01 T02151002  RH  024%=      5-min Rain = 0
KGU1 130535Z 26006KT 21/M00 A3012 RMK A01 T02141002  RH  024%=      5-min Rain = 0
KGU1 130536Z 27006KT 21/M01 A3012 RMK A01 T02131005  RH  024%=      5-min Rain = 0
KGU1 130537Z 27005KT 21/M01 A3012 RMK A01 T02141005  RH  023%=      5-min Rain = 0
KGU1 130538Z 27006KT 22/M01 A3012 RMK A01 T02151005  RH  023%=      5-min Rain = 0
KGU1 130539Z 27007KT 22/M00 A3012 RMK A01 T02161004  RH  023%=      5-min Rain = 0
KGU1 130540Z 27007KT 22/M00 A3011 RMK A01 T02181003  RH  023%=      5-min Rain = 0
KGU1 130541Z 26007KT 22/M00 A3011 RMK A01 T02191003  RH  023%=      5-min Rain = 0
KGU1 130542Z 27006KT 22/M00 A3011 RMK A01 T02211003  RH  023%=      5-min Rain = 0
KGU1 130543Z 27006KT 22/M00 A3011 RMK A01 T02221002  RH  023%=      5-min Rain = 0
KGU1 130544Z 26005KT 22/M00 A3011 RMK A01 T02221002  RH  023%=      5-min Rain = 0
KGU1 130545Z 27005KT 22/M00 A3011 RMK A01 T02221002  RH  023%=      5-min Rain = 0
KGU1 130546Z 27006KT 22/M00 A3011 RMK A01 T02221002  RH  023%=      5-min Rain = 0
KGU1 130547Z 27006KT 22/M00 A3011 RMK A01 T02221001  RH  023%=      5-min Rain = 0
KGU1 130548Z 27006KT 22/00 A3011 RMK A01 T022200-0  RH  023%=      5-min Rain = 0
KGU1 130549Z 28006KT 22/00 A3011 RMK A01 T02210001  RH  023%=      5-min Rain = 0
KGU1 130550Z 29008KT 22/00 A3011 RMK A01 T02210000  RH  023%=      5-min Rain = 0
KGU1 130551Z 29008KT 22/00 A3011 RMK A01 T022200-0  RH  023%=      5-min Rain = 0
KGU1 130552Z 29009KT 22/M00 A3011 RMK A01 T02241001  RH  023%=      5-min Rain = 0
KGU1 130553Z 28008KT 23/00 A3011 RMK A01 T022600-0  RH  023%=      5-min Rain = 0
KGU1 130554Z 29008KT 23/M00 A3011 RMK A01 T02281001  RH  022%=      5-min Rain = 0
KGU1 130555Z 29008KT 23/00 A3011 RMK A01 T02290000  RH  022%=      5-min Rain = 0
KGU1 130556Z 28007KT 23/00 A3011 RMK A01 T02290001  RH  022%=      5-min Rain = 0
KGU1 130557Z 29007KT 23/00 A3011 RMK A01 T02290002  RH  022%=      5-min Rain = 0
KGU1 130558Z 29008KT 23/00 A3011 RMK A01 T02290002  RH  023%=      5-min Rain = 0
KGU1 130559Z 30009KT 23/00 A3011 RMK A01 T02290002  RH  022%=      5-min Rain = 0
KGU1 130600Z 29009KT 23/00 A3011 RMK A01 T02300003  RH  022%=      5-min Rain = 0
KGU1 130601Z 29009KT 23/00 A3011 RMK A01 T02300002  RH  022%=      5-min Rain = 0
KGU1 130602Z 29008KT 23/00 A3011 RMK A01 T02310002  RH  022%=      5-min Rain = 0
KGU1 130603Z 30008KT 23/00 A3011 RMK A01 T02320003  RH  022%=      5-min Rain = 0
KGU1 130604Z 30008KT 23/00 A3011 RMK A01 T02330003  RH  022%=      5-min Rain = 0
KGU1 130605Z 30008KT 23/00 A3011 RMK A01 T02330004  RH  022%=      5-min Rain = 0
KGU1 130606Z 30009KT 23/00 A3011 RMK A01 T02340004  RH  022%=      5-min Rain = 0
KGU1 130607Z 30009KT 23/00 A3011 RMK A01 T02340004  RH  022%=      5-min Rain = 0
KGU1 130608Z 30008KT 23/01 A3011 RMK A01 T02340005  RH  022%=      5-min Rain = 0
KGU1 130609Z 30009KT 23/01 A3011 RMK A01 T02340006  RH  022%=      5-min Rain = 0
KGU1 130610Z 30008KT 24/01 A3011 RMK A01 T02350006  RH  022%=      5-min Rain = 0
KGU1 130611Z 30008KT 24/01 A3011 RMK A01 T02350006  RH  022%=      5-min Rain = 0
KGU1 130612Z 30009KT 24/01 A3011 RMK A01 T02350006  RH  022%=      5-min Rain = 0
KGU1 130613Z 31009KT 23/01 A3011 RMK A01 T02340006  RH  022%=      5-min Rain = 0
KGU1 130614Z 30009KT 24/01 A3011 RMK A01 T02350007  RH  023%=      5-min Rain = 0
KGU1 130615Z 30009KT 23/01 A3011 RMK A01 T02340008  RH  023%=      5-min Rain = 0
KGU1 130616Z 30009KT 23/01 A3011 RMK A01 T02340007  RH  023%=      5-min Rain = 0
KGU1 130617Z 30009KT 24/01 A3011 RMK A01 T02350007  RH  023%=      5-min Rain = 0
KGU1 130618Z 31009KT 24/01 A3011 RMK A01 T02350007  RH  023%=      5-min Rain = 0
KGU1 130619Z 31008KT 24/01 A3011 RMK A01 T02350007  RH  022%=      5-min Rain = 0
KGU1 130620Z 31009KT 24/01 A3011 RMK A01 T02360007  RH  022%=      5-min Rain = 0
KGU1 130621Z 31010KT 24/01 A3011 RMK A01 T02370006  RH  022%=      5-min Rain = 0
KGU1 130622Z 30010KT 24/01 A3011 RMK A01 T02380006  RH  022%=      5-min Rain = 0
KGU1 130623Z 30010KT 24/01 A301 RMK A01 T02380007  RH  022%=      5-min Rain = 0
KGU1 130624Z 30009KT 24/01 A301 RMK A01 T02390006  RH  022%=      5-min Rain = 0
KGU1 130625Z 30009KT 24/01 A301 RMK A01 T02380008  RH  022%=      5-min Rain = 0
KGU1 130626Z 30009KT 24/01 A301 RMK A01 T02370008  RH  022%=      5-min Rain = 0
KGU1 130627Z 30008KT 24/01 A301 RMK A01 T02360008  RH  023%=      5-min Rain = 0
KGU1 130628Z 31009KT 24/01 A301 RMK A01 T02360008  RH  023%=      5-min Rain = 0
KGU1 130629Z 31010KT 24/01 A301 RMK A01 T02360007  RH  022%=      5-min Rain = 0
KGU1 130630Z 30009KT 24/01 A301 RMK A01 T02370007  RH  022%=      5-min Rain = 0
KGU1 130631Z 30010KT 24/01 A301 RMK A01 T02370008  RH  022%=      5-min Rain = 0
KGU1 130632Z 30010KT 24/01 A301 RMK A01 T02370008  RH  022%=      5-min Rain = 0
KGU1 130633Z 30010KT 24/01 A301 RMK A01 T02370008  RH  022%=      5-min Rain = 0
KGU1 130634Z 31009KT 24/01 A301 RMK A01 T02370007  RH  022%=      5-min Rain = 0
KGU1 130635Z 30010KT 24/01 A301 RMK A01 T02380007  RH  022%=      5-min Rain = 0
KGU1 130636Z 30010KT 24/01 A301 RMK A01 T02380007  RH  022%=      5-min Rain = 0
KGU1 130637Z 30009KT 24/01 A301 RMK A01 T02380009  RH  022%=      5-min Rain = 0
KGU1 130638Z 30010KT 24/01 A301 RMK A01 T02360009  RH  023%=      5-min Rain = 0
KGU1 130639Z 30010KT 24/01 A301 RMK A01 T02360009  RH  023%=      5-min Rain = 0
KGU1 130640Z 30008KT 24/01 A301 RMK A01 T02350009  RH  023%=      5-min Rain = 0
KGU1 130641Z 30009KT 24/01 A301 RMK A01 T02350009  RH  023%=      5-min Rain = 0
KGU1 130642Z 30010KT 24/01 A301 RMK A01 T02350008  RH  023%=      5-min Rain = 0
KGU1 130643Z 30010KT 24/01 A301 RMK A01 T02360007  RH  022%=      5-min Rain = 0
KGU1 130644Z 30009KT 24/01 A301 RMK A01 T02380006  RH  022%=      5-min Rain = 0
KGU1 130645Z 30009KT 24/01 A301 RMK A01 T02390007  RH  022%=      5-min Rain = 0
KGU1 130646Z 30008KT 24/01 A301 RMK A01 T02380008  RH  022%=      5-min Rain = 0
KGU1 130647Z 30009KT 24/01 A301 RMK A01 T02370009  RH  023%=      5-min Rain = 0
KGU1 130648Z 30009KT 24/01 A301 RMK A01 T02360009  RH  023%=      5-min Rain = 0
KGU1 130649Z 30009KT 24/01 A301 RMK A01 T02360009  RH  023%=      5-min Rain = 0
KGU1 130650Z 30009KT 24/01 A301 RMK A01 T02370008  RH  022%=      5-min Rain = 0
KGU1 130651Z 30009KT 24/01 A301 RMK A01 T02380007  RH  022%=      5-min Rain = 0
KGU1 130652Z 30009KT 24/01 A301 RMK A01 T02380008  RH  022%=      5-min Rain = 0
KGU1 130653Z 30010KT 24/01 A301 RMK A01 T02380007  RH  022%=      5-min Rain = 0
KGU1 130654Z 30010KT 24/01 A301 RMK A01 T02390006  RH  022%=      5-min Rain = 0
KGU1 130655Z 30009KT 24/01 A301 RMK A01 T02400006  RH  022%=      5-min Rain = 0
KGU1 130656Z 30010KT 24/01 A301 RMK A01 T02410005  RH  021%=      5-min Rain = 0
KGU1 130657Z 30009KT 24/01 A301 RMK A01 T02420005  RH  021%=      5-min Rain = 0
KGU1 130658Z 30010KT 24/01 A301 RMK A01 T02420005  RH  021%=      5-min Rain = 0
KGU1 130659Z 30010KT 24/01 A301 RMK A01 T02420005  RH  021%=      5-min Rain = 0
KGU1 130700Z 31011KT 24/01 A301 RMK A01 T02410006  RH  022%=      5-min Rain = 0
KGU1 130701Z 31011KT 24/01 A301 RMK A01 T02410006  RH  021%=      5-min Rain = 0
KGU1 130702Z 31011KT 24/01 A301 RMK A01 T02410006  RH  022%=      5-min Rain = 0
KGU1 130703Z 30009KT 24/01 A301 RMK A01 T02420005  RH  021%=      5-min Rain = 0
KGU1 130704Z 30009KT 24/01 A301 RMK A01 T02410006  RH  021%=      5-min Rain = 0
KGU1 130705Z 30009KT 24/01 A301 RMK A01 T02410005  RH  021%=      5-min Rain = 0
KGU1 130706Z 30008KT 24/01 A301 RMK A01 T02410005  RH  021%=      5-min Rain = 0
KGU1 130707Z 30008KT 24/01 A3009 RMK A01 T02410006  RH  021%=      5-min Rain = 0
KGU1 130708Z 29008KT 24/01 A3009 RMK A01 T02410005  RH  021%=      5-min Rain = 0
KGU1 130709Z 29007KT 24/01 A3009 RMK A01 T02410005  RH  021%=      5-min Rain = 0
KGU1 130710Z 29008KT 24/01 A3009 RMK A01 T02410005  RH  021%=      5-min Rain = 0
KGU1 130711Z 29008KT 24/01 A3009 RMK A01 T02410006  RH  021%=      5-min Rain = 0
KGU1 130712Z 30008KT 24/01 A3009 RMK A01 T02410006  RH  022%=      5-min Rain = 0
KGU1 130713Z 30008KT 24/01 A3009 RMK A01 T02400006  RH  022%=      5-min Rain = 0
KGU1 130714Z 31009KT 24/01 A3009 RMK A01 T02400006  RH  022%=      5-min Rain = 0
KGU1 130715Z 31008KT 24/01 A3009 RMK A01 T02400006  RH  022%=      5-min Rain = 0
KGU1 130716Z 30008KT 24/01 A3009 RMK A01 T02400005  RH  021%=      5-min Rain = 0
KGU1 130717Z 30007KT 24/01 A3009 RMK A01 T02410006  RH  022%=      5-min Rain = 0
KGU1 130718Z 30006KT 24/01 A3009 RMK A01 T02400006  RH  022%=      5-min Rain = 0
KGU1 130719Z 30007KT 24/01 A3009 RMK A01 T02400007  RH  022%=      5-min Rain = 0
KGU1 130720Z 30008KT 24/01 A3009 RMK A01 T02390006  RH  022%=      5-min Rain = 0
KGU1 130721Z 30008KT 24/01 A3009 RMK A01 T02400005  RH  022%=      5-min Rain = 0
KGU1 130722Z 30008KT 24/00 A3009 RMK A01 T02410004  RH  021%=      5-min Rain = 0
KGU1 130723Z 31007KT 24/00 A3009 RMK A01 T02420004  RH  021%=      5-min Rain = 0
KGU1 130724Z 31006KT 24/00 A3009 RMK A01 T02430004  RH  021%=      5-min Rain = 0
KGU1 130725Z 31006KT 24/01 A3009 RMK A01 T02430005  RH  021%=      5-min Rain = 0
KGU1 130726Z 31007KT 24/01 A3009 RMK A01 T02410007  RH  022%=      5-min Rain = 0
KGU1 130727Z 30007KT 24/01 A3009 RMK A01 T02400007  RH  022%=      5-min Rain = 0
KGU1 130728Z 30006KT 24/01 A3009 RMK A01 T02390008  RH  022%=      5-min Rain = 0
KGU1 130729Z 31007KT 24/01 A3009 RMK A01 T02380008  RH  022%=      5-min Rain = 0
KGU1 130730Z 30007KT 24/01 A3009 RMK A01 T02380006  RH  022%=      5-min Rain = 0
KGU1 130731Z 31007KT 24/01 A3009 RMK A01 T02390005  RH  022%=      5-min Rain = 0
KGU1 130732Z 30007KT 24/01 A3009 RMK A01 T02400005  RH  021%=      5-min Rain = 0
KGU1 130733Z 30006KT 24/01 A3009 RMK A01 T02400005  RH  021%=      5-min Rain = 0
KGU1 130734Z 30007KT 24/01 A3009 RMK A01 T02410005  RH  021%=      5-min Rain = 0
KGU1 130735Z 31007KT 24/01 A3009 RMK A01 T02410005  RH  021%=      5-min Rain = 0
KGU1 130736Z 31008KT 24/01 A3009 RMK A01 T02420005  RH  021%=      5-min Rain = 0
KGU1 130737Z 30007KT 24/01 A3009 RMK A01 T02420006  RH  021%=      5-min Rain = 0
KGU1 130738Z 30006KT 24/01 A3009 RMK A01 T02420006  RH  021%=      5-min Rain = 0
KGU1 130739Z 30005KT 24/01 A3009 RMK A01 T02420007  RH  022%=      5-min Rain = 0
KGU1 130740Z 31004KT 24/01 A3009 RMK A01 T02410008  RH  022%=      5-min Rain = 0
KGU1 130741Z 29004KT 24/01 A3009 RMK A01 T02400009  RH  022%=      5-min Rain = 0
KGU1 130742Z 30004KT 24/01 A3009 RMK A01 T02390009  RH  022%=      5-min Rain = 0
KGU1 130743Z 29006KT 24/01 A3009 RMK A01 T02390009  RH  022%=      5-min Rain = 0
KGU1 130744Z 28006KT 24/01 A3009 RMK A01 T02400008  RH  022%=      5-min Rain = 0
KGU1 130745Z 30005KT 24/01 A3009 RMK A01 T02410009  RH  022%=      5-min Rain = 0
KGU1 130746Z 28003KT 24/01 A3009 RMK A01 T02410010  RH  022%=      5-min Rain = 0
KGU1 130747Z 29005KT 24/01 A3009 RMK A01 T02400010  RH  022%=      5-min Rain = 0
KGU1 130748Z 29005KT 24/01 A3009 RMK A01 T02400010  RH  022%=      5-min Rain = 0
KGU1 130749Z 28005KT 24/01 A3009 RMK A01 T02390011  RH  022%=      5-min Rain = 0
KGU1 130750Z 29004KT 24/01 A3009 RMK A01 T02390010  RH  022%=      5-min Rain = 0
KGU1 130751Z 30003KT 24/01 A3009 RMK A01 T02390012  RH  023%=      5-min Rain = 0
KGU1 130752Z 31003KT 24/01 A3009 RMK A01 T02380013  RH  023%=      5-min Rain = 0
KGU1 130753Z 31003KT 24/02 A3009 RMK A01 T02350015  RH  024%=      5-min Rain = 0
KGU1 130754Z 31003KT 23/01 A3009 RMK A01 T02330014  RH  024%=      5-min Rain = 0
KGU1 130755Z 31003KT 23/02 A3009 RMK A01 T02320015  RH  024%=      5-min Rain = 0
KGU1 130756Z 27009G16KT 23/01 A3009 RMK A01 T02320010  RH  023%=      5-min Rain = 0
KGU1 130757Z 28010KT 24/00 A3009 RMK A01 T02360002  RH  022%=      5-min Rain = 0
KGU1 130758Z 28007KT 24/00 A3009 RMK A01 T02420000  RH  020%=      5-min Rain = 0
KGU1 130759Z 28008KT 25/00 A3009 RMK A01 T02460000  RH  020%=      5-min Rain = 0
KGU1 130800Z 26009KT 25/00 A3009 RMK A01 T024800-0  RH  020%=      5-min Rain = 0
KGU1 130801Z 25009KT 25/M00 A3009 RMK A01 T02501001  RH  019%=      5-min Rain = 0
KGU1 130802Z 25011KT 25/M00 A3008 RMK A01 T02531004  RH  019%=      5-min Rain = 0
KGU1 130803Z 25008KT 26/M00 A3008 RMK A01 T02551004  RH  018%=      5-min Rain = 0
KGU1 130804Z 26008KT 26/M00 A3008 RMK A01 T02561003  RH  018%=      5-min Rain = 0
KGU1 130805Z 28009KT 26/M00 A3009 RMK A01 T02571003  RH  018%=      5-min Rain = 0
KGU1 130806Z 27009KT 26/M00 A3009 RMK A01 T02561002  RH  019%=      5-min Rain = 0
KGU1 130807Z 28007KT 26/00 A3009 RMK A01 T025500-0  RH  019%=      5-min Rain = 0
KGU1 130808Z 27008KT 25/M00 A3009 RMK A01 T02541001  RH  019%=      5-min Rain = 0
KGU1 130809Z 28009KT 25/M00 A3009 RMK A01 T02541001  RH  019%=      5-min Rain = 0
KGU1 130810Z 28009KT 25/M00 A3009 RMK A01 T02531002  RH  019%=      5-min Rain = 0
KGU1 130811Z 28009KT 25/M00 A3009 RMK A01 T02531002  RH  019%=      5-min Rain = 0
KGU1 130812Z 28008KT 25/M00 A3009 RMK A01 T02521002  RH  019%=      5-min Rain = 0
KGU1 130813Z 31002KT 25/01 A3009 RMK A01 T02490005  RH  020%=      5-min Rain = 0
KGU1 130814Z 30005KT 25/01 A3009 RMK A01 T02460005  RH  021%=      5-min Rain = 0
KGU1 130815Z 31004KT 24/00 A3009 RMK A01 T02440004  RH  021%=      5-min Rain = 0
KGU1 130816Z 30005KT 24/00 A3009 RMK A01 T02420002  RH  021%=      5-min Rain = 0
KGU1 130817Z 30005KT 24/00 A3009 RMK A01 T02410003  RH  021%=      5-min Rain = 0
KGU1 130818Z 29006KT 24/00 A3009 RMK A01 T02390003  RH  021%=      5-min Rain = 0
KGU1 130819Z 30006KT 24/00 A3009 RMK A01 T02390002  RH  021%=      5-min Rain = 0
KGU1 130820Z 29005KT 24/00 A3009 RMK A01 T02390002  RH  021%=      5-min Rain = 0
KGU1 130821Z 30005KT 24/00 A3009 RMK A01 T02390002  RH  021%=      5-min Rain = 0
KGU1 130822Z 30005KT 24/00 A3008 RMK A01 T02380003  RH  021%=      5-min Rain = 0
KGU1 130823Z 31006KT 24/00 A3008 RMK A01 T02370004  RH  022%=      5-min Rain = 0
KGU1 130824Z 31007KT 24/01 A3008 RMK A01 T02350006  RH  022%=      5-min Rain = 0
KGU1 130825Z 32006KT 23/01 A3008 RMK A01 T02320006  RH  023%=      5-min Rain = 0
KGU1 130826Z 32006KT 23/01 A3008 RMK A01 T02310006  RH  023%=      5-min Rain = 0
KGU1 130827Z 31006KT 23/01 A3008 RMK A01 T02290006  RH  023%=      5-min Rain = 0
KGU1 130828Z 30005KT 23/01 A3008 RMK A01 T02280006  RH  023%=      5-min Rain = 0
KGU1 130829Z 30005KT 23/01 A3008 RMK A01 T02270006  RH  023%=      5-min Rain = 0
KGU1 130830Z 29004KT 23/01 A3008 RMK A01 T02270005  RH  023%=      5-min Rain = 0
KGU1 130831Z 30005KT 23/00 A3008 RMK A01 T02270004  RH  023%=      5-min Rain = 0
KGU1 130832Z 29006KT 23/00 A3008 RMK A01 T02280004  RH  023%=      5-min Rain = 0
KGU1 130833Z 29006KT 23/00 A3008 RMK A01 T02290004  RH  023%=      5-min Rain = 0
KGU1 130834Z 30007KT 23/00 A3008 RMK A01 T02290003  RH  023%=      5-min Rain = 0
KGU1 130835Z 30007KT 23/00 A3008 RMK A01 T02300004  RH  023%=      5-min Rain = 0
KGU1 130836Z 29007KT 23/00 A3008 RMK A01 T02300003  RH  022%=      5-min Rain = 0
KGU1 130837Z 29006KT 23/00 A3008 RMK A01 T02310002  RH  022%=      5-min Rain = 0
KGU1 130838Z 30006KT 23/00 A3008 RMK A01 T02320003  RH  022%=      5-min Rain = 0
KGU1 130839Z 30006KT 23/00 A3008 RMK A01 T02320003  RH  022%=      5-min Rain = 0
KGU1 130840Z 30006KT 23/00 A3008 RMK A01 T02320003  RH  022%=      5-min Rain = 0
KGU1 130841Z 28007KT 23/00 A3008 RMK A01 T02320001  RH  022%=      5-min Rain = 0
KGU1 130842Z 28007KT 23/00 A3008 RMK A01 T02340001  RH  022%=      5-min Rain = 0
KGU1 130843Z 29006KT 23/00 A3008 RMK A01 T02340001  RH  022%=      5-min Rain = 0
KGU1 130844Z 29006KT 23/00 A3008 RMK A01 T02340000  RH  021%=      5-min Rain = 0
KGU1 130845Z 29007KT 24/00 A3008 RMK A01 T02350001  RH  022%=      5-min Rain = 0
KGU1 130846Z 29010KT 24/M00 A3008 RMK A01 T02351001  RH  021%=      5-min Rain = 0
KGU1 130847Z 28008KT 24/M00 A3008 RMK A01 T02371001  RH  021%=      5-min Rain = 0
KGU1 130848Z 29008KT 24/M00 A3008 RMK A01 T02381001  RH  021%=      5-min Rain = 0
KGU1 130849Z 28008KT 24/00 A3008 RMK A01 T023800-0  RH  021%=      5-min Rain = 0
KGU1 130850Z 30009KT 24/00 A3008 RMK A01 T02380000  RH  021%=      5-min Rain = 0
KGU1 130851Z 29008KT 24/00 A3008 RMK A01 T02380000  RH  021%=      5-min Rain = 0
KGU1 130852Z 30008KT 24/00 A3008 RMK A01 T02380001  RH  021%=      5-min Rain = 0
KGU1 130853Z 29008KT 24/00 A3008 RMK A01 T02380002  RH  021%=      5-min Rain = 0
KGU1 130854Z 29007KT 24/00 A3008 RMK A01 T02370002  RH  021%=      5-min Rain = 0
KGU1 130855Z 29009KT 24/00 A3008 RMK A01 T02370002  RH  021%=      5-min Rain = 0
KGU1 130856Z 29012KT 24/00 A3008 RMK A01 T02390000  RH  021%=      5-min Rain = 0
KGU1 130857Z 30012KT 24/00 A3008 RMK A01 T02410000  RH  021%=      5-min Rain = 0
KGU1 130858Z 29009KT 24/00 A3008 RMK A01 T02420001  RH  021%=      5-min Rain = 0
KGU1 130859Z 29009KT 24/00 A3008 RMK A01 T02420001  RH  021%=      5-min Rain = 0
KGU1 130900Z 29009KT 24/00 A3008 RMK A01 T02410002  RH  021%=      5-min Rain = 0
KGU1 130901Z 30011KT 24/00 A3008 RMK A01 T02410001  RH  021%=      5-min Rain = 0
KGU1 130902Z 30010KT 24/00 A3007 RMK A01 T02410001  RH  021%=      5-min Rain = 0
KGU1 130903Z 30009KT 24/00 A3007 RMK A01 T02410001  RH  021%=      5-min Rain = 0
KGU1 130904Z 30011KT 24/00 A3007 RMK A01 T02410001  RH  021%=      5-min Rain = 0
KGU1 130905Z 29011KT 24/00 A3007 RMK A01 T02420000  RH  021%=      5-min Rain = 0
KGU1 130906Z 30010KT 24/00 A3007 RMK A01 T02420001  RH  021%=      5-min Rain = 0
KGU1 130907Z 29011KT 24/00 A3007 RMK A01 T02410001  RH  021%=      5-min Rain = 0
KGU1 130908Z 30011KT 24/00 A3007 RMK A01 T02410001  RH  021%=      5-min Rain = 0
KGU1 130909Z 30011KT 24/00 A3007 RMK A01 T02410001  RH  021%=      5-min Rain = 0
KGU1 130910Z 30012KT 24/00 A3007 RMK A01 T02410001  RH  021%=      5-min Rain = 0
KGU1 130911Z 29010KT 24/00 A3007 RMK A01 T02410000  RH  021%=      5-min Rain = 0
KGU1 130912Z 29011KT 24/00 A3007 RMK A01 T02410001  RH  021%=      5-min Rain = 0
KGU1 130913Z 29012KT 24/00 A3007 RMK A01 T02410001  RH  021%=      5-min Rain = 0
KGU1 130914Z 30010KT 24/00 A3007 RMK A01 T02410001  RH  021%=      5-min Rain = 0
KGU1 130915Z 31012KT 24/00 A3007 RMK A01 T02410000  RH  021%=      5-min Rain = 0
KGU1 130916Z 30011KT 24/00 A3007 RMK A01 T02420000  RH  021%=      5-min Rain = 0
KGU1 130917Z 30011KT 24/00 A3007 RMK A01 T02420001  RH  021%=      5-min Rain = 0
KGU1 130918Z 30012KT 24/00 A3007 RMK A01 T02410001  RH  021%=      5-min Rain = 0
KGU1 130919Z 30010KT 24/00 A3007 RMK A01 T02410001  RH  021%=      5-min Rain = 0
KGU1 130920Z 30011KT 24/00 A3007 RMK A01 T02400001  RH  021%=      5-min Rain = 0
KGU1 130921Z 30011KT 24/00 A3007 RMK A01 T02400001  RH  021%=      5-min Rain = 0
KGU1 130922Z 30011KT 24/00 A3007 RMK A01 T02390002  RH  021%=      5-min Rain = 0
KGU1 130923Z 30012KT 24/00 A3007 RMK A01 T02390001  RH  021%=      5-min Rain = 0
KGU1 130924Z 30009KT 24/00 A3007 RMK A01 T02390002  RH  021%=      5-min Rain = 0
KGU1 130925Z 30012KT 24/00 A3007 RMK A01 T02390001  RH  021%=      5-min Rain = 0
KGU1 130926Z 30012KT 24/00 A3007 RMK A01 T02400001  RH  021%=      5-min Rain = 0
KGU1 130927Z 30011KT 24/00 A3007 RMK A01 T02400001  RH  021%=      5-min Rain = 0
KGU1 130928Z 30010KT 24/00 A3007 RMK A01 T02400001  RH  021%=      5-min Rain = 0
KGU1 130929Z 30011KT 24/00 A3007 RMK A01 T02400001  RH  021%=      5-min Rain = 0
KGU1 130930Z 30011KT 24/00 A3007 RMK A01 T02400001  RH  021%=      5-min Rain = 0
KGU1 130931Z 30011KT 24/00 A3007 RMK A01 T02410001  RH  021%=      5-min Rain = 0
KGU1 130932Z 30009KT 24/00 A3007 RMK A01 T02410000  RH  021%=      5-min Rain = 0
KGU1 130933Z 30009KT 24/00 A3007 RMK A01 T02410000  RH  021%=      5-min Rain = 0
KGU1 130934Z 29010KT 24/00 A3007 RMK A01 T024100-0  RH  021%=      5-min Rain = 0
KGU1 130935Z 30009KT 24/M00 A3007 RMK A01 T02411001  RH  020%=      5-min Rain = 0
KGU1 130936Z 30009KT 24/00 A3007 RMK A01 T02410001  RH  021%=      5-min Rain = 0
KGU1 130937Z 30010KT 24/00 A3007 RMK A01 T02400001  RH  021%=      5-min Rain = 0
KGU1 130938Z 30009KT 24/00 A3007 RMK A01 T02400000  RH  021%=      5-min Rain = 0
KGU1 130939Z 30010KT 24/M00 A3007 RMK A01 T02401001  RH  021%=      5-min Rain = 0
KGU1 130940Z 30009KT 24/00 A3007 RMK A01 T02400000  RH  021%=      5-min Rain = 0
KGU1 130941Z 30010KT 24/00 A3007 RMK A01 T02400000  RH  021%=      5-min Rain = 0
KGU1 130942Z 30009KT 24/00 A3007 RMK A01 T02400000  RH  021%=      5-min Rain = 0
KGU1 130943Z 30009KT 24/00 A3007 RMK A01 T024000-0  RH  021%=      5-min Rain = 0
KGU1 130944Z 30009KT 24/00 A3007 RMK A01 T02400000  RH  021%=      5-min Rain = 0
KGU1 130945Z 30010KT 24/00 A3007 RMK A01 T02400000  RH  021%=      5-min Rain = 0
KGU1 130946Z 30009KT 24/00 A3007 RMK A01 T024000-0  RH  021%=      5-min Rain = 0
KGU1 130947Z 30009KT 24/00 A3007 RMK A01 T024000-0  RH  021%=      5-min Rain = 0
KGU1 130948Z 30008KT 24/00 A3007 RMK A01 T02390000  RH  021%=      5-min Rain = 0
KGU1 130949Z 30009KT 24/00 A3007 RMK A01 T023900-0  RH  021%=      5-min Rain = 0
KGU1 130950Z 30009KT 24/00 A3007 RMK A01 T023900-0  RH  021%=      5-min Rain = 0
KGU1 130951Z 29010KT 24/M00 A3007 RMK A01 T02381001  RH  021%=      5-min Rain = 0
KGU1 130952Z 30009KT 24/M00 A3007 RMK A01 T02391001  RH  021%=      5-min Rain = 0
KGU1 130953Z 30008KT 24/00 A3007 RMK A01 T023800-0  RH  021%=      5-min Rain = 0
KGU1 130954Z 30009KT 24/00 A3007 RMK A01 T023800-0  RH  021%=      5-min Rain = 0
KGU1 130955Z 29009KT 24/00 A3007 RMK A01 T023700-0  RH  021%=      5-min Rain = 0
KGU1 130956Z 29010KT 24/M00 A3007 RMK A01 T02391001  RH  021%=      5-min Rain = 0
KGU1 130957Z 29010KT 24/M00 A3007 RMK A01 T02391001  RH  021%=      5-min Rain = 0
KGU1 130958Z 29008KT 24/00 A3007 RMK A01 T024000-0  RH  021%=      5-min Rain = 0
KGU1 130959Z 29008KT 24/00 A3007 RMK A01 T024000-0  RH  021%=      5-min Rain = 0
KGU1 131000Z 29008KT 24/M00 A3007 RMK A01 T02391001  RH  021%=      5-min Rain = 0
KGU1 131001Z 29009KT 24/M00 A3007 RMK A01 T02401002  RH  020%=      5-min Rain = 0
KGU1 131002Z 29009KT 24/M00 A3007 RMK A01 T02411002  RH  020%=      5-min Rain = 0
KGU1 131003Z 29009KT 24/M00 A3006 RMK A01 T02421002  RH  020%=      5-min Rain = 0
KGU1 131004Z 29007KT 24/M00 A3007 RMK A01 T02421001  RH  020%=      5-min Rain = 0
KGU1 131005Z 28006KT 24/M00 A3006 RMK A01 T02411001  RH  020%=      5-min Rain = 0
KGU1 131006Z 28007KT 24/M00 A3006 RMK A01 T02411001  RH  020%=      5-min Rain = 0
KGU1 131007Z 28008KT 24/M00 A3006 RMK A01 T02411002  RH  020%=      5-min Rain = 0
KGU1 131008Z 29007KT 24/M00 A3006 RMK A01 T02421002  RH  020%=      5-min Rain = 0
KGU1 131009Z 28007KT 24/M00 A3006 RMK A01 T02421003  RH  020%=      5-min Rain = 0
KGU1 131010Z 26010KT 24/M00 A3006 RMK A01 T02431004  RH  020%=      5-min Rain = 0
KGU1 131011Z 27009KT 24/M01 A3006 RMK A01 T02441005  RH  019%=      5-min Rain = 0
KGU1 131012Z 26010G15KT 25/M01 A3006 RMK A01 T02461007  RH  019%=      5-min Rain = 0
KGU1 131013Z 26009KT 25/M01 A3006 RMK A01 T02481008  RH  019%=      5-min Rain = 0
KGU1 131014Z 26008KT 25/M01 A3006 RMK A01 T02501008  RH  018%=      5-min Rain = 0
KGU1 131015Z 26007KT 25/M01 A3006 RMK A01 T02511008  RH  018%=      5-min Rain = 0
KGU1 131016Z 26008KT 25/M01 A3006 RMK A01 T02511008  RH  018%=      5-min Rain = 0
KGU1 131017Z 25007KT 25/M01 A3006 RMK A01 T02511008  RH  018%=      5-min Rain = 0
KGU1 131018Z 25008KT 25/M01 A3006 RMK A01 T02511007  RH  018%=      5-min Rain = 0
KGU1 131019Z 25007KT 25/M01 A3006 RMK A01 T02511007  RH  018%=      5-min Rain = 0
KGU1 131020Z 22004KT 25/M00 A3006 RMK A01 T02511004  RH  019%=      5-min Rain = 0
KGU1 131021Z 24006KT 25/M00 A3006 RMK A01 T02481003  RH  019%=      5-min Rain = 0
KGU1 131022Z 26006KT 25/M01 A3006 RMK A01 T02461005  RH  019%=      5-min Rain = 0
KGU1 131023Z 27009KT 25/M01 A3006 RMK A01 T02471006  RH  019%=      5-min Rain = 0
KGU1 131024Z 27008KT 25/M01 A3006 RMK A01 T02481006  RH  019%=      5-min Rain = 0
KGU1 131025Z 27008KT 25/M01 A3006 RMK A01 T02491006  RH  019%=      5-min Rain = 0
KGU1 131026Z 27008KT 25/M01 A3006 RMK A01 T02481005  RH  019%=      5-min Rain = 0
KGU1 131027Z 26009KT 25/M01 A3006 RMK A01 T02481006  RH  019%=      5-min Rain = 0
KGU1 131028Z 25008KT 25/M01 A3006 RMK A01 T02491006  RH  019%=      5-min Rain = 0
KGU1 131029Z 25008KT 25/M01 A3006 RMK A01 T02501007  RH  019%=      5-min Rain = 0
KGU1 131030Z 25008G15KT 25/M01 A3006 RMK A01 T02511007  RH  018%=      5-min Rain = 0
KGU1 131031Z 26007G13KT 25/M01 A3006 RMK A01 T02521007  RH  018%=      5-min Rain = 0
KGU1 131032Z 26011KT 25/M01 A3006 RMK A01 T02521008  RH  018%=      5-min Rain = 0
KGU1 131033Z 28010KT 25/M01 A3006 RMK A01 T02531008  RH  018%=      5-min Rain = 0
KGU1 131034Z 26009KT 25/M01 A3006 RMK A01 T02531007  RH  018%=      5-min Rain = 0
KGU1 131035Z 27013KT 25/M01 A3006 RMK A01 T02541008  RH  018%=      5-min Rain = 0
KGU1 131036Z 25012KT 25/M01 A3006 RMK A01 T02541008  RH  018%=      5-min Rain = 0
KGU1 131037Z 24008KT 25/M01 A3006 RMK A01 T02541006  RH  018%=      5-min Rain = 0
KGU1 131038Z 24009KT 25/M01 A3006 RMK A01 T02531006  RH  018%=      5-min Rain = 0
KGU1 131039Z 24007KT 25/M01 A3006 RMK A01 T02531007  RH  018%=      5-min Rain = 0
KGU1 131040Z 25010G16KT 25/M01 A3005 RMK A01 T02541007  RH  018%=      5-min Rain = 0
KGU1 131041Z 25010KT 25/M01 A3005 RMK A01 T02541008  RH  018%=      5-min Rain = 0
KGU1 131042Z 26010KT 26/M01 A3005 RMK A01 T02551007  RH  018%=      5-min Rain = 0
KGU1 131043Z 25010KT 26/M01 A3005 RMK A01 T02551008  RH  018%=      5-min Rain = 0
KGU1 131044Z 22008KT 26/M01 A3005 RMK A01 T02551007  RH  018%=      5-min Rain = 0
KGU1 131045Z 23008KT 25/M00 A3005 RMK A01 T02541004  RH  018%=      5-min Rain = 0
KGU1 131046Z 25007KT 25/M01 A3006 RMK A01 T02531006  RH  018%=      5-min Rain = 0
KGU1 131047Z 25009KT 25/M01 A3005 RMK A01 T02531006  RH  018%=      5-min Rain = 0
KGU1 131048Z 24010KT 25/M01 A3005 RMK A01 T02531007  RH  018%=      5-min Rain = 0
KGU1 131049Z 24009KT 25/M01 A3005 RMK A01 T02541007  RH  018%=      5-min Rain = 0
KGU1 131050Z 25010G16KT 25/M01 A3005 RMK A01 T02531007  RH  018%=      5-min Rain = 0
KGU1 131051Z 23007KT 25/M01 A3006 RMK A01 T02531005  RH  019%=      5-min Rain = 0
KGU1 131052Z 23008KT 25/M00 A3006 RMK A01 T02501001  RH  019%=      5-min Rain = 0
KGU1 131053Z 23009KT 25/M00 A3006 RMK A01 T02461001  RH  020%=      5-min Rain = 0
KGU1 131054Z 24010KT 25/M00 A3005 RMK A01 T02451004  RH  020%=      5-min Rain = 0
KGU1 131055Z 24008KT 25/M01 A3005 RMK A01 T02451005  RH  019%=      5-min Rain = 0
KGU1 131056Z 24007KT 25/M00 A3006 RMK A01 T02461004  RH  019%=      5-min Rain = 0
KGU1 131057Z 24006KT 25/M00 A3005 RMK A01 T02461003  RH  020%=      5-min Rain = 0
KGU1 131058Z 24008KT 24/M00 A3005 RMK A01 T02441003  RH  020%=      5-min Rain = 0
KGU1 131059Z 25010KT 24/M00 A3005 RMK A01 T02441004  RH  020%=      5-min Rain = 0
KGU1 131100Z 26011KT 25/M01 A3005 RMK A01 T02451006  RH  019%=      5-min Rain = 0
KGU1 131101Z 27011KT 25/M01 A3005 RMK A01 T02481008  RH  019%=      5-min Rain = 0
KGU1 131102Z 27011KT 25/M01 A3005 RMK A01 T02491007  RH  019%=      5-min Rain = 0
KGU1 131103Z 27011KT 25/M01 A3005 RMK A01 T02501008  RH  018%=      5-min Rain = 0
KGU1 131104Z 26012KT 25/M01 A3005 RMK A01 T02521009  RH  018%=      5-min Rain = 0
KGU1 131105Z 27012KT 25/M01 A3005 RMK A01 T02531008  RH  018%=      5-min Rain = 0
KGU1 131106Z 28011KT 25/M01 A3005 RMK A01 T02531009  RH  018%=      5-min Rain = 0
KGU1 131107Z 26011KT 25/M01 A3005 RMK A01 T02541009  RH  018%=      5-min Rain = 0
KGU1 131108Z 27011KT 25/M01 A3005 RMK A01 T02541008  RH  018%=      5-min Rain = 0
KGU1 131109Z 28011KT 25/M01 A3005 RMK A01 T02541008  RH  018%=      5-min Rain = 0
KGU1 131110Z 28012KT 25/M01 A3006 RMK A01 T02541008  RH  018%=      5-min Rain = 0
KGU1 131111Z 28009KT 25/M01 A3006 RMK A01 T02531007  RH  018%=      5-min Rain = 0
KGU1 131112Z 27010KT 25/M01 A3006 RMK A01 T02521006  RH  018%=      5-min Rain = 0
KGU1 131113Z 28010KT 25/M01 A3006 RMK A01 T02511007  RH  018%=      5-min Rain = 0
KGU1 131114Z 28009KT 25/M01 A3006 RMK A01 T02511006  RH  019%=      5-min Rain = 0
KGU1 131115Z 28010KT 25/M01 A3006 RMK A01 T02511006  RH  019%=      5-min Rain = 0
KGU1 131116Z 29009KT 25/M01 A3006 RMK A01 T02501006  RH  019%=      5-min Rain = 0
KGU1 131117Z 28007KT 25/M01 A3006 RMK A01 T02501005  RH  019%=      5-min Rain = 0
KGU1 131118Z 27009KT 25/M01 A3006 RMK A01 T02491006  RH  019%=      5-min Rain = 0
KGU1 131119Z 27012KT 25/M01 A3006 RMK A01 T02491008  RH  019%=      5-min Rain = 0
KGU1 131120Z 27013KT 25/M01 A3006 RMK A01 T02511008  RH  018%=      5-min Rain = 0
KGU1 131121Z 27010KT 25/M01 A3006 RMK A01 T02521008  RH  018%=      5-min Rain = 0
KGU1 131122Z 27009KT 25/M01 A3006 RMK A01 T02521007  RH  018%=      5-min Rain = 0
KGU1 131123Z 27010KT 25/M01 A3006 RMK A01 T02511007  RH  018%=      5-min Rain = 0
KGU1 131124Z 28009KT 25/M01 A3006 RMK A01 T02511007  RH  018%=      5-min Rain = 0
KGU1 131125Z 28010KT 25/M01 A3006 RMK A01 T02511007  RH  018%=      5-min Rain = 0
KGU1 131126Z 27010G15KT 25/M01 A3006 RMK A01 T02511007  RH  018%=      5-min Rain = 0
KGU1 131127Z 27014KT 25/M01 A3006 RMK A01 T02511008  RH  018%=      5-min Rain = 0
KGU1 131128Z 28011KT 25/M01 A3006 RMK A01 T02521009  RH  018%=      5-min Rain = 0
KGU1 131129Z 28011KT 25/M01 A3006 RMK A01 T02521008  RH  018%=      5-min Rain = 0
KGU1 131130Z 28012KT 25/M01 A3006 RMK A01 T02521008  RH  018%=      5-min Rain = 0
KGU1 131131Z 27014KT 25/M01 A3006 RMK A01 T02531009  RH  018%=      5-min Rain = 0
KGU1 131132Z 27016KT 25/M01 A3006 RMK A01 T02531010  RH  018%=      5-min Rain = 0
KGU1 131133Z 27014KT 25/M01 A3006 RMK A01 T02541010  RH  018%=      5-min Rain = 0
KGU1 131134Z 27012KT 26/M01 A3006 RMK A01 T02551009  RH  018%=      5-min Rain = 0
KGU1 131135Z 27010G15KT 25/M01 A3006 RMK A01 T02541009  RH  018%=      5-min Rain = 0
KGU1 131136Z 27015KT 25/M01 A3006 RMK A01 T02541010  RH  018%=      5-min Rain = 0
KGU1 131137Z 27015KT 25/M01 A3006 RMK A01 T02541010  RH  018%=      5-min Rain = 0
KGU1 131138Z 28012KT 26/M01 A3006 RMK A01 T02551009  RH  018%=      5-min Rain = 0
KGU1 131139Z 27012KT 25/M01 A3006 RMK A01 T02541009  RH  018%=      5-min Rain = 0
KGU1 131140Z 27015KT 25/M01 A3006 RMK A01 T02541010  RH  018%=      5-min Rain = 0
KGU1 131141Z 26013G19KT 26/M01 A3006 RMK A01 T02551010  RH  018%=      5-min Rain = 0
KGU1 131142Z 27012G17KT 26/M01 A3006 RMK A01 T02551010  RH  018%=      5-min Rain = 0
KGU1 131143Z 27011KT 26/M01 A3006 RMK A01 T02551009  RH  018%=      5-min Rain = 0
KGU1 131144Z 27012KT 25/M01 A3006 RMK A01 T02541009  RH  018%=      5-min Rain = 0
KGU1 131145Z 28009KT 25/M01 A3006 RMK A01 T02531007  RH  018%=      5-min Rain = 0
KGU1 131146Z 28008KT 25/M01 A3006 RMK A01 T02521007  RH  018%=      5-min Rain = 0
KGU1 131147Z 28009KT 25/M01 A3006 RMK A01 T02511007  RH  018%=      5-min Rain = 0
KGU1 131148Z 28010KT 25/M01 A3006 RMK A01 T02501007  RH  018%=      5-min Rain = 0
KGU1 131149Z 27010KT 25/M01 A3006 RMK A01 T02501008  RH  018%=      5-min Rain = 0
KGU1 131150Z 27008G13KT 25/M01 A3006 RMK A01 T02511008  RH  018%=      5-min Rain = 0
KGU1 131151Z 28010KT 25/M01 A3006 RMK A01 T02511008  RH  018%=      5-min Rain = 0
KGU1 131152Z 27010KT 25/M01 A3006 RMK A01 T02521009  RH  018%=      5-min Rain = 0
KGU1 131153Z 27012KT 25/M01 A3006 RMK A01 T02521008  RH  018%=      5-min Rain = 0
KGU1 131154Z 27011KT 25/M01 A3006 RMK A01 T02521008  RH  018%=      5-min Rain = 0
KGU1 131155Z 27011KT 25/M01 A3006 RMK A01 T02531009  RH  018%=      5-min Rain = 0
KGU1 131156Z 27009KT 25/M01 A3006 RMK A01 T02531009  RH  018%=      5-min Rain = 0
KGU1 131157Z 27011KT 25/M01 A3006 RMK A01 T02531009  RH  018%=      5-min Rain = 0
KGU1 131158Z 27008KT 25/M01 A3006 RMK A01 T02531008  RH  018%=      5-min Rain = 0
KGU1 131159Z 28010KT 25/M01 A3006 RMK A01 T02521008  RH  018%=      5-min Rain = 0
KGU1 131200Z 28007KT 25/M01 A3006 RMK A01 T02521008  RH  018%=      5-min Rain = 0
KGU1 131201Z 28007KT 25/M01 A3006 RMK A01 T02511007  RH  018%=      5-min Rain = 0
KGU1 131202Z 27009G17KT 25/M01 A3007 RMK A01 T02511008  RH  018%=      5-min Rain = 0
KGU1 131203Z 27011KT 25/M01 A3006 RMK A01 T02521009  RH  018%=      5-min Rain = 0
KGU1 131204Z 27012KT 25/M01 A3006 RMK A01 T02531009  RH  018%=      5-min Rain = 0
KGU1 131205Z 27010KT 25/M01 A3007 RMK A01 T02541009  RH  018%=      5-min Rain = 0
KGU1 131206Z 28009KT 25/M01 A3007 RMK A01 T02531008  RH  018%=      5-min Rain = 0
KGU1 131207Z 29007KT 25/M01 A3007 RMK A01 T02531007  RH  018%=      5-min Rain = 0
KGU1 131208Z 27007KT 25/M01 A3007 RMK A01 T02521007  RH  018%=      5-min Rain = 0
KGU1 131209Z 27008KT 25/M01 A3007 RMK A01 T02511007  RH  018%=      5-min Rain = 0
KGU1 131210Z 28010KT 25/M01 A3007 RMK A01 T02511008  RH  018%=      5-min Rain = 0
KGU1 131211Z 28008KT 25/M01 A3007 RMK A01 T02511007  RH  018%=      5-min Rain = 0
KGU1 131212Z 28011KT 25/M01 A3007 RMK A01 T02511008  RH  018%=      5-min Rain = 0
KGU1 131213Z 28009KT 25/M01 A3007 RMK A01 T02511008  RH  018%=      5-min Rain = 0
KGU1 131214Z 28008KT 25/M01 A3007 RMK A01 T02511007  RH  018%=      5-min Rain = 0
KGU1 131215Z 28008KT 25/M01 A3007 RMK A01 T02511007  RH  018%=      5-min Rain = 0
KGU1 131216Z 28010KT 25/M01 A3007 RMK A01 T02501007  RH  019%=      5-min Rain = 0
KGU1 131217Z 28011KT 25/M01 A3007 RMK A01 T02501008  RH  018%=      5-min Rain = 0
KGU1 131218Z 29008KT 25/M01 A3007 RMK A01 T02511008  RH  018%=      5-min Rain = 0
KGU1 131219Z 29010KT 25/M01 A3007 RMK A01 T02511007  RH  018%=      5-min Rain = 0
KGU1 131220Z 29010KT 25/M01 A3007 RMK A01 T02511008  RH  018%=      5-min Rain = 0
KGU1 131221Z 28008KT 25/M01 A3007 RMK A01 T02511007  RH  018%=      5-min Rain = 0
KGU1 131222Z 28009KT 25/M01 A3007 RMK A01 T02501007  RH  018%=      5-min Rain = 0
KGU1 131223Z 29008KT 25/M01 A3007 RMK A01 T02501007  RH  019%=      5-min Rain = 0
KGU1 131224Z 28008KT 25/M01 A3007 RMK A01 T02491007  RH  019%=      5-min Rain = 0
KGU1 131225Z 28008KT 25/M01 A3007 RMK A01 T02491007  RH  019%=      5-min Rain = 0
KGU1 131226Z 28007KT 25/M01 A3007 RMK A01 T02481006  RH  019%=      5-min Rain = 0
KGU1 131227Z 28006KT 25/M01 A3007 RMK A01 T02481006  RH  019%=      5-min Rain = 0
KGU1 131228Z 28010KT 25/M01 A3007 RMK A01 T02481006  RH  019%=      5-min Rain = 0
KGU1 131229Z 28010KT 25/M01 A3007 RMK A01 T02481007  RH  019%=      5-min Rain = 0
KGU1 131230Z 29011KT 25/M01 A3007 RMK A01 T02491008  RH  019%=      5-min Rain = 0
KGU1 131231Z 29010KT 25/M01 A3007 RMK A01 T02491007  RH  019%=      5-min Rain = 0
KGU1 131232Z 29011KT 25/M01 A3007 RMK A01 T02491008  RH  018%=      5-min Rain = 0
KGU1 131233Z 28009KT 25/M01 A3007 RMK A01 T02491007  RH  019%=      5-min Rain = 0
KGU1 131234Z 29010KT 25/M01 A3007 RMK A01 T02481007  RH  019%=      5-min Rain = 0
KGU1 131235Z 28010KT 25/M01 A3007 RMK A01 T02481008  RH  019%=      5-min Rain = 0
KGU1 131236Z 28011KT 25/M01 A3007 RMK A01 T02481008  RH  019%=      5-min Rain = 0
KGU1 131237Z 28013G18KT 25/M01 A3007 RMK A01 T02491008  RH  019%=      5-min Rain = 0
KGU1 131238Z 29013KT 25/M01 A3007 RMK A01 T02491008  RH  018%=      5-min Rain = 0
KGU1 131239Z 28011KT 25/M01 A3007 RMK A01 T02491008  RH  018%=      5-min Rain = 0
KGU1 131240Z 28011KT 25/M01 A3007 RMK A01 T02491009  RH  018%=      5-min Rain = 0
KGU1 131241Z 28011KT 25/M01 A3007 RMK A01 T02501009  RH  018%=      5-min Rain = 0
KGU1 131242Z 28011KT 25/M01 A3007 RMK A01 T02501009  RH  018%=      5-min Rain = 0
KGU1 131243Z 28010KT 25/M01 A3007 RMK A01 T02501009  RH  018%=      5-min Rain = 0
KGU1 131244Z 28009KT 25/M01 A3007 RMK A01 T02491008  RH  019%=      5-min Rain = 0
KGU1 131245Z 28009KT 25/M01 A3007 RMK A01 T02481007  RH  019%=      5-min Rain = 0
KGU1 131246Z 28011KT 25/M01 A3007 RMK A01 T02481008  RH  019%=      5-min Rain = 0
KGU1 131247Z 28012KT 25/M01 A3007 RMK A01 T02491009  RH  018%=      5-min Rain = 0
KGU1 131248Z 29013KT 25/M01 A3007 RMK A01 T02491010  RH  018%=      5-min Rain = 0
KGU1 131249Z 28015KT 25/M01 A3007 RMK A01 T02501010  RH  018%=      5-min Rain = 0
KGU1 131250Z 29014KT 25/M01 A3007 RMK A01 T02511011  RH  018%=      5-min Rain = 0
KGU1 131251Z 29013KT 25/M01 A3007 RMK A01 T02521011  RH  018%=      5-min Rain = 0
KGU1 131252Z 28013KT 25/M01 A3007 RMK A01 T02521012  RH  018%=      5-min Rain = 0
KGU1 131253Z 28014KT 25/M01 A3007 RMK A01 T02531012  RH  018%=      5-min Rain = 0
KGU1 131254Z 29012KT 25/M01 A3007 RMK A01 T02521011  RH  018%=      5-min Rain = 0
KGU1 131255Z 28012KT 25/M01 A3007 RMK A01 T02521010  RH  018%=      5-min Rain = 0
KGU1 131256Z 28012G17KT 25/M01 A3007 RMK A01 T02511011  RH  018%=      5-min Rain = 0
KGU1 131257Z 28013KT 25/M01 A3007 RMK A01 T02511011  RH  018%=      5-min Rain = 0
KGU1 131258Z 29015KT 25/M01 A3007 RMK A01 T02511012  RH  018%=      5-min Rain = 0
KGU1 131259Z 29016KT 25/M01 A3007 RMK A01 T02521014  RH  017%=      5-min Rain = 0
KGU1 131300Z 28016KT 25/M01 A3007 RMK A01 T02531014  RH  017%=      5-min Rain = 0
KGU1 131301Z 29012KT 25/M01 A3007 RMK A01 T02531013  RH  017%=      5-min Rain = 0
KGU1 131302Z 29012KT 25/M01 A3007 RMK A01 T02531012  RH  018%=      5-min Rain = 0
KGU1 131303Z 29014KT 25/M01 A3007 RMK A01 T02521011  RH  018%=      5-min Rain = 0
KGU1 131304Z 29012KT 25/M01 A3007 RMK A01 T02511012  RH  018%=      5-min Rain = 0
KGU1 131305Z 29012KT 25/M01 A3007 RMK A01 T02511011  RH  018%=      5-min Rain = 0
KGU1 131306Z 28012KT 25/M01 A3007 RMK A01 T02501011  RH  018%=      5-min Rain = 0
KGU1 131307Z 29013KT 25/M01 A3007 RMK A01 T02501012  RH  018%=      5-min Rain = 0
KGU1 131308Z 29014KT 25/M01 A3007 RMK A01 T02511011  RH  018%=      5-min Rain = 0
KGU1 131309Z 29013KT 25/M01 A3007 RMK A01 T02511011  RH  018%=      5-min Rain = 0
KGU1 131310Z 29013KT 25/M01 A3007 RMK A01 T02511012  RH  018%=      5-min Rain = 0
KGU1 131311Z 29014KT 25/M01 A3007 RMK A01 T02511011  RH  018%=      5-min Rain = 0
KGU1 131312Z 29016KT 25/M01 A3007 RMK A01 T02511012  RH  018%=      5-min Rain = 0
KGU1 131313Z 29013KT 25/M01 A3007 RMK A01 T02521012  RH  018%=      5-min Rain = 0
KGU1 131314Z 29015G20KT 25/M01 A3007 RMK A01 T02521012  RH  018%=      5-min Rain = 0
KGU1 131315Z 29017KT 25/M01 A3007 RMK A01 T02531013  RH  017%=      5-min Rain = 0
KGU1 131316Z 28013KT 25/M01 A3007 RMK A01 T02531012  RH  018%=      5-min Rain = 0
KGU1 131317Z 29013KT 25/M01 A3007 RMK A01 T02531012  RH  018%=      5-min Rain = 0
KGU1 131318Z 29014KT 25/M01 A3007 RMK A01 T02531012  RH  018%=      5-min Rain = 0
KGU1 131319Z 29014KT 25/M01 A3007 RMK A01 T02521011  RH  018%=      5-min Rain = 0
KGU1 131320Z 29013KT 25/M01 A3007 RMK A01 T02521011  RH  018%=      5-min Rain = 0
KGU1 131321Z 29013KT 25/M01 A3007 RMK A01 T02511011  RH  018%=      5-min Rain = 0
KGU1 131322Z 29013KT 25/M01 A3007 RMK A01 T02521011  RH  018%=      5-min Rain = 0
KGU1 131323Z 29014G19KT 25/M01 A3007 RMK A01 T02511011  RH  018%=      5-min Rain = 0
KGU1 131324Z 29015KT 25/M01 A3007 RMK A01 T02521013  RH  018%=      5-min Rain = 0
KGU1 131325Z 29013KT 25/M01 A3007 RMK A01 T02521012  RH  018%=      5-min Rain = 0
KGU1 131326Z 29015KT 25/M01 A3007 RMK A01 T02521011  RH  018%=      5-min Rain = 0
KGU1 131327Z 29016KT 25/M01 A3007 RMK A01 T02521012  RH  018%=      5-min Rain = 0
KGU1 131328Z 29014KT 25/M01 A3007 RMK A01 T02521012  RH  018%=      5-min Rain = 0
KGU1 131329Z 29014KT 25/M01 A3007 RMK A01 T02521010  RH  018%=      5-min Rain = 0
KGU1 131330Z 29013G21KT 25/M01 A3007 RMK A01 T02511009  RH  018%=      5-min Rain = 0
KGU1 131331Z 29017KT 25/M01 A3007 RMK A01 T02511011  RH  018%=      5-min Rain = 0
KGU1 131332Z 29019KT 25/M01 A3007 RMK A01 T02521012  RH  018%=      5-min Rain = 0
KGU1 131333Z 28016KT 25/M01 A3007 RMK A01 T02531013  RH  018%=      5-min Rain = 0
KGU1 131334Z 29017KT 25/M01 A3008 RMK A01 T02531011  RH  018%=      5-min Rain = 0
KGU1 131335Z 29017KT 25/M01 A3008 RMK A01 T02531011  RH  018%=      5-min Rain = 0
KGU1 131336Z 29016KT 25/M01 A3008 RMK A01 T02521010  RH  018%=      5-min Rain = 0
KGU1 131337Z 29018KT 25/M01 A3008 RMK A01 T02531012  RH  018%=      5-min Rain = 0
KGU1 131338Z 29017KT 25/M01 A3008 RMK A01 T02531012  RH  018%=      5-min Rain = 0
KGU1 131339Z 29015G20KT 25/M01 A3008 RMK A01 T02531009  RH  018%=      5-min Rain = 0
KGU1 131340Z 30016KT 25/M01 A3008 RMK A01 T02521007  RH  018%=      5-min Rain = 0
KGU1 131341Z 30018KT 25/M01 A3008 RMK A01 T02521009  RH  018%=      5-min Rain = 0
KGU1 131342Z 30017KT 25/M01 A3008 RMK A01 T02521008  RH  018%=      5-min Rain = 0
KGU1 131343Z 30015KT 25/M01 A3008 RMK A01 T02521008  RH  018%=      5-min Rain = 0
KGU1 131344Z 29017KT 25/M01 A3008 RMK A01 T02531008  RH  018%=      5-min Rain = 0
KGU1 131345Z 29018KT 26/M01 A3008 RMK A01 T02551008  RH  018%=      5-min Rain = 0
KGU1 131346Z 29014G19KT 26/M01 A3008 RMK A01 T02561006  RH  018%=      5-min Rain = 0
KGU1 131347Z 30015KT 26/M00 A3008 RMK A01 T02551003  RH  019%=      5-min Rain = 0
KGU1 131348Z 29016KT 26/M00 A3008 RMK A01 T02551004  RH  018%=      5-min Rain = 0
KGU1 131349Z 29017KT 26/M01 A3008 RMK A01 T02551007  RH  018%=      5-min Rain = 0
KGU1 131350Z 29013KT 25/M00 A3008 RMK A01 T02541003  RH  019%=      5-min Rain = 0
KGU1 131351Z 29015KT 25/M00 A3008 RMK A01 T02541004  RH  019%=      5-min Rain = 0
KGU1 131352Z 29015KT 25/M00 A3008 RMK A01 T02541004  RH  018%=      5-min Rain = 0
KGU1 131353Z 29017G22KT 26/M01 A3008 RMK A01 T02551006  RH  018%=      5-min Rain = 0
KGU1 131354Z 29017KT 26/M01 A3008 RMK A01 T02561006  RH  018%=      5-min Rain = 0
KGU1 131355Z 30019KT 26/M01 A3008 RMK A01 T02571006  RH  018%=      5-min Rain = 0
KGU1 131356Z 29018KT 26/M01 A3008 RMK A01 T02581005  RH  018%=      5-min Rain = 0
KGU1 131357Z 29019KT 26/M01 A3008 RMK A01 T02591006  RH  018%=      5-min Rain = 0
KGU1 131358Z 29018KT 26/M01 A3008 RMK A01 T02601006  RH  018%=      5-min Rain = 0
KGU1 131359Z 29018KT 26/M00 A3008 RMK A01 T02601004  RH  018%=      5-min Rain = 0
KGU1 131400Z 29018G23KT 26/M01 A3008 RMK A01 T02611005  RH  018%=      5-min Rain = 0
KGU1 131401Z 29018KT 26/M00 A3008 RMK A01 T02611004  RH  018%=      5-min Rain = 0
KGU1 131402Z 30019KT 26/M00 A3008 RMK A01 T02611004  RH  018%=      5-min Rain = 0
KGU1 131403Z 29018G23KT 26/M01 A3008 RMK A01 T02611006  RH  017%=      5-min Rain = 0
KGU1 131404Z 29016G21KT 26/M00 A3008 RMK A01 T02621004  RH  018%=      5-min Rain = 0
KGU1 131405Z 29014G20KT 26/M00 A3008 RMK A01 T02631001  RH  018%=      5-min Rain = 0
KGU1 131406Z 29017KT 26/M00 A3008 RMK A01 T02631003  RH  018%=      5-min Rain = 0
KGU1 131407Z 29015G20KT 26/M01 A3008 RMK A01 T02611005  RH  018%=      5-min Rain = 0
KGU1 131408Z 29016G21KT 26/M01 A3008 RMK A01 T02601006  RH  018%=      5-min Rain = 0
KGU1 131409Z 30015KT 26/M01 A3008 RMK A01 T02591005  RH  018%=      5-min Rain = 0
KGU1 131410Z 29016KT 26/M01 A3008 RMK A01 T02581005  RH  018%=      5-min Rain = 0
KGU1 131411Z 30015G20KT 26/M00 A3008 RMK A01 T02571003  RH  018%=      5-min Rain = 0
KGU1 131412Z 29016KT 26/M00 A3008 RMK A01 T02561004  RH  018%=      5-min Rain = 0
KGU1 131413Z 30014KT 26/M00 A3008 RMK A01 T02561004  RH  018%=      5-min Rain = 0
KGU1 131414Z 30017KT 26/M01 A3008 RMK A01 T02561006  RH  018%=      5-min Rain = 0
KGU1 131415Z 30014KT 26/M00 A3008 RMK A01 T02561004  RH  018%=      5-min Rain = 0
KGU1 131416Z 30015KT 26/M00 A3008 RMK A01 T02561003  RH  018%=      5-min Rain = 0
KGU1 131417Z 29014KT 26/M00 A3008 RMK A01 T02571002  RH  018%=      5-min Rain = 0
KGU1 131418Z 29017KT 26/M01 A3008 RMK A01 T02571005  RH  018%=      5-min Rain = 0
KGU1 131419Z 29015KT 26/M00 A3008 RMK A01 T02591004  RH  018%=      5-min Rain = 0
KGU1 131420Z 30017G22KT 26/M00 A3008 RMK A01 T02611003  RH  018%=      5-min Rain = 0
KGU1 131421Z 30017KT 26/M00 A3008 RMK A01 T02631004  RH  018%=      5-min Rain = 0
KGU1 131422Z 29016KT 26/M00 A3008 RMK A01 T02641002  RH  018%=      5-min Rain = 0
KGU1 131423Z 30017KT 27/M01 A3008 RMK A01 T02651006  RH  017%=      5-min Rain = 0
KGU1 131424Z 29015KT 27/M00 A3008 RMK A01 T02661002  RH  017%=      5-min Rain = 0
KGU1 131425Z 30017KT 27/M00 A3008 RMK A01 T02671004  RH  017%=      5-min Rain = 0
KGU1 131426Z 30017G22KT 27/M00 A3008 RMK A01 T02671003  RH  017%=      5-min Rain = 0
KGU1 131427Z 30019KT 27/M01 A3008 RMK A01 T02671005  RH  017%=      5-min Rain = 0
KGU1 131428Z 29018KT 27/M01 A3008 RMK A01 T02671005  RH  017%=      5-min Rain = 0
KGU1 131429Z 29018KT 27/M01 A3008 RMK A01 T02681005  RH  017%=      5-min Rain = 0
KGU1 131430Z 29018KT 27/M01 A3008 RMK A01 T02671005  RH  017%=      5-min Rain = 0
KGU1 131431Z 29017KT 27/M00 A3008 RMK A01 T02671003  RH  017%=      5-min Rain = 0
KGU1 131432Z 29018KT 27/M00 A3008 RMK A01 T02671001  RH  018%=      5-min Rain = 0
KGU1 131433Z 29020KT 27/M01 A3008 RMK A01 T02671006  RH  017%=      5-min Rain = 0
KGU1 131434Z 30017KT 27/M00 A3008 RMK A01 T02661003  RH  017%=      5-min Rain = 0
KGU1 131435Z 29014KT 26/M00 A3008 RMK A01 T02641001  RH  018%=      5-min Rain = 0
KGU1 131436Z 30017KT 26/M00 A3008 RMK A01 T02611002  RH  018%=      5-min Rain = 0
KGU1 131437Z 30018KT 26/M01 A3008 RMK A01 T02591005  RH  018%=      5-min Rain = 0
KGU1 131438Z 29017KT 26/M01 A3008 RMK A01 T02581005  RH  018%=      5-min Rain = 0
KGU1 131439Z 29016KT 26/M00 A3008 RMK A01 T02571004  RH  018%=      5-min Rain = 0
KGU1 131440Z 29018KT 26/M01 A3008 RMK A01 T02561005  RH  018%=      5-min Rain = 0
KGU1 131441Z 29016KT 26/M01 A3008 RMK A01 T02561005  RH  018%=      5-min Rain = 0
KGU1 131442Z 30018KT 26/M00 A3008 RMK A01 T02561004  RH  018%=      5-min Rain = 0
KGU1 131443Z 30013KT 26/M00 A3008 RMK A01 T02551002  RH  019%=      5-min Rain = 0
KGU1 131444Z 29015G20KT 26/M00 A3008 RMK A01 T02551002  RH  019%=      5-min Rain = 0
KGU1 131445Z 30018KT 26/M00 A3008 RMK A01 T02551004  RH  018%=      5-min Rain = 0
KGU1 131446Z 30014KT 26/M00 A3008 RMK A01 T02551002  RH  019%=      5-min Rain = 0
KGU1 131447Z 29017KT 26/M00 A3008 RMK A01 T02551003  RH  019%=      5-min Rain = 0
KGU1 131448Z 30018G26KT 26/M00 A3008 RMK A01 T02561003  RH  018%=      5-min Rain = 0
KGU1 131449Z 30019G25KT 26/M00 A3008 RMK A01 T02561003  RH  018%=      5-min Rain = 0
KGU1 131450Z 29017KT 26/M00 A3008 RMK A01 T02561004  RH  018%=      5-min Rain = 0
KGU1 131451Z 30018KT 26/M01 A3008 RMK A01 T02571005  RH  018%=      5-min Rain = 0
KGU1 131452Z 29018KT 26/M00 A3008 RMK A01 T02571003  RH  018%=      5-min Rain = 0
KGU1 131453Z 29015KT 26/M00 A3008 RMK A01 T02571001  RH  019%=      5-min Rain = 0
KGU1 131454Z 29017KT 26/M00 A3008 RMK A01 T02581001  RH  019%=      5-min Rain = 0
KGU1 131455Z 29019KT 26/M00 A3008 RMK A01 T02581002  RH  018%=      5-min Rain = 0
KGU1 131456Z 29020KT 26/M00 A3008 RMK A01 T02591003  RH  018%=      5-min Rain = 0
KGU1 131457Z 29018KT 26/M00 A3008 RMK A01 T02611003  RH  018%=      5-min Rain = 0
KGU1 131458Z 30017KT 26/00 A3008 RMK A01 T02620001  RH  018%=      5-min Rain = 0
KGU1 131459Z 30019KT 26/00 A3008 RMK A01 T02610000  RH  018%=      5-min Rain = 0
KGU1 131500Z 30020KT 26/M00 A3008 RMK A01 T02611001  RH  018%=      5-min Rain = 0
KGU1 131501Z 30015G20KT 26/00 A3008 RMK A01 T02600002  RH  019%=      5-min Rain = 0
KGU1 131502Z 29017KT 26/00 A3008 RMK A01 T02610002  RH  018%=      5-min Rain = 0
KGU1 131503Z 29018G23KT 26/00 A3008 RMK A01 T02620001  RH  018%=      5-min Rain = 0
KGU1 131504Z 30018KT 26/00 A3008 RMK A01 T02620001  RH  018%=      5-min Rain = 0
KGU1 131505Z 29017G22KT 26/00 A3008 RMK A01 T02640000  RH  018%=      5-min Rain = 0
KGU1 131506Z 28018G23KT 27/M00 A3008 RMK A01 T02661001  RH  018%=      5-min Rain = 0
KGU1 131507Z 30015KT 27/00 A3008 RMK A01 T02680004  RH  018%=      5-min Rain = 0
KGU1 131508Z 30016KT 27/00 A3008 RMK A01 T02680004  RH  018%=      5-min Rain = 0
KGU1 131509Z 29018KT 27/00 A3008 RMK A01 T02690003  RH  018%=      5-min Rain = 0
KGU1 131510Z 30019KT 27/M00 A3008 RMK A01 T02671001  RH  018%=      5-min Rain = 0
KGU1 131511Z 29017KT 27/00 A3008 RMK A01 T02660001  RH  018%=      5-min Rain = 0
KGU1 131512Z 29018KT 27/00 A3008 RMK A01 T02650001  RH  018%=      5-min Rain = 0
KGU1 131513Z 29017KT 26/00 A3008 RMK A01 T02630001  RH  018%=      5-min Rain = 0
KGU1 131514Z 29018KT 26/00 A3008 RMK A01 T02630003  RH  018%=      5-min Rain = 0
KGU1 131515Z 30019KT 26/00 A3008 RMK A01 T02630002  RH  018%=      5-min Rain = 0
KGU1 131516Z 29018KT 26/M00 A3008 RMK A01 T02631001  RH  018%=      5-min Rain = 0
KGU1 131517Z 30017KT 26/00 A3008 RMK A01 T02620002  RH  018%=      5-min Rain = 0
KGU1 131518Z 30020KT 26/00 A3008 RMK A01 T02610001  RH  018%=      5-min Rain = 0
KGU1 131519Z 29016KT 26/00 A3008 RMK A01 T02610000  RH  018%=      5-min Rain = 0
KGU1 131520Z 29018KT 26/00 A3008 RMK A01 T02610001  RH  018%=      5-min Rain = 0
KGU1 131521Z 29017G22KT 26/00 A3008 RMK A01 T02610002  RH  019%=      5-min Rain = 0
KGU1 131522Z 29019KT 26/00 A3008 RMK A01 T02610001  RH  018%=      5-min Rain = 0
KGU1 131523Z 29017KT 26/00 A3008 RMK A01 T02610001  RH  018%=      5-min Rain = 0
KGU1 131524Z 28019KT 26/00 A3008 RMK A01 T02600001  RH  019%=      5-min Rain = 0
KGU1 131525Z 29017KT 26/00 A3008 RMK A01 T02600002  RH  019%=      5-min Rain = 0
KGU1 131526Z 30017KT 26/00 A3008 RMK A01 T02600003  RH  019%=      5-min Rain = 0
KGU1 131527Z 30017G22KT 26/00 A3008 RMK A01 T02610002  RH  019%=      5-min Rain = 0
KGU1 131528Z 30014G20KT 26/01 A3008 RMK A01 T02610005  RH  019%=      5-min Rain = 0
KGU1 131529Z 29016KT 26/00 A3008 RMK A01 T02600004  RH  019%=      5-min Rain = 0
KGU1 131530Z 30017KT 26/00 A3009 RMK A01 T02600003  RH  019%=      5-min Rain = 0
KGU1 131531Z 29017KT 26/00 A3009 RMK A01 T02590004  RH  019%=      5-min Rain = 0
KGU1 131532Z 30017KT 26/00 A3009 RMK A01 T02590002  RH  019%=      5-min Rain = 0
KGU1 131533Z 30016G24KT 26/00 A3009 RMK A01 T02590004  RH  019%=      5-min Rain = 0
KGU1 131534Z 30015G21KT 26/01 A3009 RMK A01 T02590006  RH  019%=      5-min Rain = 0
KGU1 131535Z 29017KT 26/00 A3009 RMK A01 T02590003  RH  019%=      5-min Rain = 0
KGU1 131536Z 30014KT 26/00 A3009 RMK A01 T02590004  RH  019%=      5-min Rain = 0
KGU1 131537Z 30017KT 26/00 A3009 RMK A01 T02590004  RH  019%=      5-min Rain = 0
KGU1 131538Z 31018KT 26/00 A3009 RMK A01 T02590001  RH  019%=      5-min Rain = 0
KGU1 131539Z 30015KT 26/00 A3009 RMK A01 T02590002  RH  019%=      5-min Rain = 0
KGU1 131540Z 30016KT 26/00 A3009 RMK A01 T02580004  RH  019%=      5-min Rain = 0
KGU1 131541Z 29016KT 26/00 A3009 RMK A01 T02590002  RH  019%=      5-min Rain = 0
KGU1 131542Z 30017KT 26/M00 A3009 RMK A01 T02591001  RH  018%=      5-min Rain = 0
KGU1 131543Z 29017KT 26/00 A3009 RMK A01 T025900-0  RH  019%=      5-min Rain = 0
KGU1 131544Z 30015KT 26/00 A3009 RMK A01 T02590001  RH  019%=      5-min Rain = 0
KGU1 131545Z 29014G20KT 26/00 A3009 RMK A01 T02590003  RH  019%=      5-min Rain = 0
KGU1 131546Z 29018KT 26/00 A3009 RMK A01 T025900-0  RH  018%=      5-min Rain = 0
KGU1 131547Z 30017G22KT 26/00 A3009 RMK A01 T025900-0  RH  018%=      5-min Rain = 0
KGU1 131548Z 30018KT 26/M00 A3009 RMK A01 T02591002  RH  018%=      5-min Rain = 0
KGU1 131549Z 29014KT 26/00 A3009 RMK A01 T02590000  RH  018%=      5-min Rain = 0
KGU1 131550Z 30016KT 26/M00 A3009 RMK A01 T02591001  RH  018%=      5-min Rain = 0
KGU1 131551Z 29016KT 26/00 A3009 RMK A01 T02590000  RH  019%=      5-min Rain = 0
KGU1 131552Z 29016KT 26/00 A3009 RMK A01 T02590000  RH  019%=      5-min Rain = 0
KGU1 131553Z 29014KT 26/00 A3009 RMK A01 T02590001  RH  019%=      5-min Rain = 0
KGU1 131554Z 29014KT 26/00 A3009 RMK A01 T02590001  RH  019%=      5-min Rain = 0
KGU1 131555Z 29013G20KT 26/01 A3009 RMK A01 T02590005  RH  019%=      5-min Rain = 0
KGU1 131556Z 29017G23KT 26/00 A3009 RMK A01 T02590002  RH  019%=      5-min Rain = 0
KGU1 131557Z 29016G22KT 26/00 A3009 RMK A01 T02600000  RH  018%=      5-min Rain = 0
KGU1 131558Z 29014KT 26/00 A3009 RMK A01 T02600004  RH  019%=      5-min Rain = 0
KGU1 131559Z 29018KT 26/00 A3009 RMK A01 T02600001  RH  018%=      5-min Rain = 0
KGU1 131600Z 30015KT 26/00 A3009 RMK A01 T02600002  RH  019%=      5-min Rain = 0
KGU1 131601Z 30017KT 26/00 A3009 RMK A01 T02600001  RH  019%=      5-min Rain = 0
KGU1 131602Z 29014KT 26/00 A3009 RMK A01 T02590002  RH  019%=      5-min Rain = 0
KGU1 131603Z 29014G19KT 26/00 A3009 RMK A01 T02600003  RH  019%=      5-min Rain = 0
KGU1 131604Z 29015KT 26/00 A3009 RMK A01 T02600003  RH  019%=      5-min Rain = 0
KGU1 131605Z 30014KT 26/00 A301 RMK A01 T02600003  RH  019%=      5-min Rain = 0
KGU1 131606Z 30015KT 26/00 A3009 RMK A01 T02600004  RH  019%=      5-min Rain = 0
KGU1 131607Z 30015KT 26/00 A3009 RMK A01 T02590003  RH  019%=      5-min Rain = 0
KGU1 131608Z 29016KT 26/00 A3009 RMK A01 T02590002  RH  019%=      5-min Rain = 0
KGU1 131609Z 30012G17KT 26/01 A3009 RMK A01 T02590005  RH  019%=      5-min Rain = 0
KGU1 131610Z 29014KT 26/00 A3009 RMK A01 T02590004  RH  019%=      5-min Rain = 0
KGU1 131611Z 30012KT 26/01 A3009 RMK A01 T02580007  RH  019%=      5-min Rain = 0
KGU1 131612Z 30013G18KT 26/01 A3009 RMK A01 T02590006  RH  019%=      5-min Rain = 0
KGU1 131613Z 30014KT 26/01 A3009 RMK A01 T02580005  RH  019%=      5-min Rain = 0
KGU1 131614Z 29014KT 26/01 A3009 RMK A01 T02580007  RH  020%=      5-min Rain = 0
KGU1 131615Z 30015KT 26/01 A3009 RMK A01 T02590006  RH  019%=      5-min Rain = 0
KGU1 131616Z 29015KT 26/00 A3009 RMK A01 T02590003  RH  019%=      5-min Rain = 0
KGU1 131617Z 30015KT 26/01 A3009 RMK A01 T02600005  RH  019%=      5-min Rain = 0
KGU1 131618Z 29012KT 26/01 A3009 RMK A01 T02600008  RH  019%=      5-min Rain = 0
KGU1 131619Z 29014KT 26/01 A3009 RMK A01 T02610007  RH  019%=      5-min Rain = 0
KGU1 131620Z 29013KT 26/01 A3009 RMK A01 T02610011  RH  020%=      5-min Rain = 0
KGU1 131621Z 30014G20KT 26/01 A3009 RMK A01 T02620011  RH  020%=      5-min Rain = 0
KGU1 131622Z 29015G20KT 26/01 A3009 RMK A01 T02630006  RH  019%=      5-min Rain = 0
KGU1 131623Z 30012KT 26/01 A3009 RMK A01 T02640013  RH  020%=      5-min Rain = 0
KGU1 131624Z 30014KT 27/01 A3009 RMK A01 T02680014  RH  019%=      5-min Rain = 0
KGU1 131625Z 30014G20KT 27/01 A3009 RMK A01 T02710013  RH  019%=      5-min Rain = 0
KGU1 131626Z 29016KT 27/01 A3009 RMK A01 T02740010  RH  018%=      5-min Rain = 0
KGU1 131627Z 29018KT 28/01 A3009 RMK A01 T02770008  RH  018%=      5-min Rain = 0
KGU1 131628Z 30017KT 28/01 A3009 RMK A01 T02770006  RH  017%=      5-min Rain = 0
KGU1 131629Z 29017KT 28/01 A3009 RMK A01 T02760006  RH  017%=      5-min Rain = 0
KGU1 131630Z 29017KT 27/01 A3009 RMK A01 T02740007  RH  018%=      5-min Rain = 0
KGU1 131631Z 30017KT 27/01 A3009 RMK A01 T02730005  RH  018%=      5-min Rain = 0
KGU1 131632Z 30014KT 27/01 A3009 RMK A01 T02710007  RH  018%=      5-min Rain = 0
KGU1 131633Z 30017KT 27/01 A3009 RMK A01 T02690008  RH  018%=      5-min Rain = 0
KGU1 131634Z 29016G21KT 27/01 A3009 RMK A01 T02710011  RH  019%=      5-min Rain = 0
KGU1 131635Z 29017KT 27/01 A3009 RMK A01 T02740010  RH  018%=      5-min Rain = 0
KGU1 131636Z 30014KT 28/01 A3009 RMK A01 T02750013  RH  018%=      5-min Rain = 0
KGU1 131637Z 29014KT 28/01 A3009 RMK A01 T02750012  RH  018%=      5-min Rain = 0
KGU1 131638Z 30016KT 28/01 A3009 RMK A01 T02750011  RH  018%=      5-min Rain = 0
KGU1 131639Z 29016G21KT 27/01 A3009 RMK A01 T02730009  RH  018%=      5-min Rain = 0
KGU1 131640Z 29015KT 27/01 A3009 RMK A01 T02720007  RH  018%=      5-min Rain = 0
KGU1 131641Z 30017KT 27/01 A3009 RMK A01 T02740011  RH  018%=      5-min Rain = 0
KGU1 131642Z 29018KT 28/01 A3009 RMK A01 T02770005  RH  017%=      5-min Rain = 0
KGU1 131643Z 29016G23KT 28/01 A3009 RMK A01 T02770006  RH  017%=      5-min Rain = 0
KGU1 131644Z 30018KT 28/01 A3009 RMK A01 T02750005  RH  017%=      5-min Rain = 0
KGU1 131645Z 30015KT 27/01 A3009 RMK A01 T02740008  RH  018%=      5-min Rain = 0
KGU1 131646Z 29015KT 27/01 A3009 RMK A01 T02740012  RH  018%=      5-min Rain = 0
KGU1 131647Z 29016KT 28/00 A3009 RMK A01 T02750003  RH  017%=      5-min Rain = 0
KGU1 131648Z 30016KT 27/01 A3009 RMK A01 T02730006  RH  018%=      5-min Rain = 0
KGU1 131649Z 30016KT 27/01 A3009 RMK A01 T02710006  RH  018%=      5-min Rain = 0
KGU1 131650Z 29015KT 27/01 A3009 RMK A01 T02690008  RH  018%=      5-min Rain = 0
KGU1 131651Z 30013KT 27/01 A3009 RMK A01 T02690012  RH  019%=      5-min Rain = 0
KGU1 131652Z 30018KT 27/01 A3009 RMK A01 T02690007  RH  018%=      5-min Rain = 0
KGU1 131653Z 29017KT 27/00 A3009 RMK A01 T02690003  RH  018%=      5-min Rain = 0
KGU1 131654Z 30017KT 27/00 A3009 RMK A01 T02690004  RH  018%=      5-min Rain = 0
KGU1 131655Z 30015KT 27/00 A3009 RMK A01 T02690004  RH  018%=      5-min Rain = 0
KGU1 131656Z 29014KT 27/01 A3009 RMK A01 T02680009  RH  019%=      5-min Rain = 0
KGU1 131657Z 30014KT 27/01 A3009 RMK A01 T02680010  RH  019%=      5-min Rain = 0
KGU1 131658Z 30016KT 27/01 A3009 RMK A01 T02680006  RH  018%=      5-min Rain = 0
KGU1 131659Z 29015KT 27/01 A3009 RMK A01 T02690006  RH  018%=      5-min Rain = 0
KGU1 131700Z 30015KT 27/00 A3009 RMK A01 T02680003  RH  018%=      5-min Rain = 0
KGU1 131701Z 30015KT 27/01 A3009 RMK A01 T02690008  RH  018%=      5-min Rain = 0
KGU1 131702Z 29014KT 27/01 A3009 RMK A01 T02720010  RH  019%=      5-min Rain = 0
KGU1 131703Z 29016KT 27/01 A3009 RMK A01 T02730005  RH  018%=      5-min Rain = 0
KGU1 131704Z 30013KT 27/01 A3009 RMK A01 T02710008  RH  018%=      5-min Rain = 0
KGU1 131705Z 29015KT 27/01 A3009 RMK A01 T02700006  RH  018%=      5-min Rain = 0
KGU1 131706Z 29015KT 27/01 A3009 RMK A01 T02690005  RH  018%=      5-min Rain = 0
KGU1 131707Z 29016KT 27/00 A3009 RMK A01 T02690001  RH  018%=      5-min Rain = 0
KGU1 131708Z 29015KT 27/00 A3009 RMK A01 T02680001  RH  018%=      5-min Rain = 0
KGU1 131709Z 30014KT 27/00 A3009 RMK A01 T02670003  RH  018%=      5-min Rain = 0
KGU1 131710Z 29012KT 27/01 A3009 RMK A01 T02660006  RH  019%=      5-min Rain = 0
KGU1 131711Z 29012KT 27/01 A3009 RMK A01 T02660007  RH  019%=      5-min Rain = 0
KGU1 131712Z 29013G19KT 27/01 A3009 RMK A01 T02660006  RH  019%=      5-min Rain = 0
KGU1 131713Z 30013KT 27/00 A3009 RMK A01 T02660000  RH  018%=      5-min Rain = 0
KGU1 131714Z 30011KT 27/01 A3009 RMK A01 T02660005  RH  018%=      5-min Rain = 0
KGU1 131715Z 29010KT 27/01 A3009 RMK A01 T02660005  RH  018%=      5-min Rain = 0
KGU1 131716Z 28013KT 27/01 A3009 RMK A01 T02670007  RH  019%=      5-min Rain = 0
KGU1 131717Z 28012KT 27/01 A3009 RMK A01 T02680008  RH  018%=      5-min Rain = 0
KGU1 131718Z 29011G16KT 27/01 A3009 RMK A01 T02710011  RH  019%=      5-min Rain = 0
KGU1 131719Z 29014KT 27/00 A3009 RMK A01 T02700001  RH  017%=      5-min Rain = 0
KGU1 131720Z 29010KT 27/00 A3009 RMK A01 T02690004  RH  018%=      5-min Rain = 0
KGU1 131721Z 29010KT 27/01 A3009 RMK A01 T02690006  RH  018%=      5-min Rain = 0
KGU1 131722Z 28012KT 27/01 A3009 RMK A01 T02680005  RH  018%=      5-min Rain = 0
KGU1 131723Z 29011KT 27/00 A3009 RMK A01 T02680004  RH  018%=      5-min Rain = 0
KGU1 131724Z 28010KT 27/01 A3009 RMK A01 T02680006  RH  018%=      5-min Rain = 0
KGU1 131725Z 29012KT 27/00 A3009 RMK A01 T02670004  RH  018%=      5-min Rain = 0
KGU1 131726Z 28011KT 27/00 A3009 RMK A01 T02670003  RH  018%=      5-min Rain = 0
KGU1 131727Z 29010KT 27/00 A3009 RMK A01 T02670003  RH  018%=      5-min Rain = 0
KGU1 131728Z 29010KT 27/00 A3009 RMK A01 T02670002  RH  018%=      5-min Rain = 0
KGU1 131729Z 28010KT 27/00 A3009 RMK A01 T02680004  RH  018%=      5-min Rain = 0
KGU1 131730Z 29009KT 27/00 A3009 RMK A01 T02680003  RH  018%=      5-min Rain = 0
KGU1 131731Z 29011KT 27/00 A3009 RMK A01 T02680001  RH  018%=      5-min Rain = 0
KGU1 131732Z 29008KT 27/01 A3009 RMK A01 T02690008  RH  018%=      5-min Rain = 0
KGU1 131733Z 29009KT 27/01 A3009 RMK A01 T02710009  RH  018%=      5-min Rain = 0
KGU1 131734Z 29008KT 27/01 A3009 RMK A01 T02720013  RH  019%=      5-min Rain = 0
KGU1 131735Z 30008KT 27/01 A3009 RMK A01 T02730014  RH  019%=      5-min Rain = 0
KGU1 131736Z 29009KT 27/01 A3009 RMK A01 T02730007  RH  018%=      5-min Rain = 0
KGU1 131737Z 28011KT 27/M00 A3009 RMK A01 T02731001  RH  017%=      5-min Rain = 0
KGU1 131738Z 28012KT 27/00 A3009 RMK A01 T02720002  RH  017%=      5-min Rain = 0
KGU1 131739Z 29010KT 27/01 A3009 RMK A01 T02720005  RH  018%=      5-min Rain = 0
KGU1 131740Z 28009KT 27/01 A3009 RMK A01 T02720005  RH  018%=      5-min Rain = 0
KGU1 131741Z 28010KT 27/01 A3009 RMK A01 T02720006  RH  018%=      5-min Rain = 0
KGU1 131742Z 28011KT 27/00 A3009 RMK A01 T02730003  RH  018%=      5-min Rain = 0
KGU1 131743Z 28010KT 27/00 A3009 RMK A01 T02730001  RH  017%=      5-min Rain = 0
KGU1 131744Z 29008KT 27/00 A3009 RMK A01 T027200-0  RH  017%=      5-min Rain = 0
KGU1 131745Z 29008KT 27/01 A3009 RMK A01 T02730005  RH  018%=      5-min Rain = 0
KGU1 131746Z 29010KT 27/00 A3009 RMK A01 T02740004  RH  017%=      5-min Rain = 0
KGU1 131747Z 28010KT 27/00 A3009 RMK A01 T02740003  RH  017%=      5-min Rain = 0
KGU1 131748Z 29007KT 27/01 A3009 RMK A01 T02740007  RH  018%=      5-min Rain = 0
KGU1 131749Z 29010KT 28/01 A3009 RMK A01 T02750007  RH  018%=      5-min Rain = 0
KGU1 131750Z 29011KT 28/00 A3009 RMK A01 T02760000  RH  017%=      5-min Rain = 0
KGU1 131751Z 29011KT 28/M00 A3009 RMK A01 T02761001  RH  017%=      5-min Rain = 0
KGU1 131752Z 29009KT 28/01 A3009 RMK A01 T02760006  RH  017%=      5-min Rain = 0
KGU1 131753Z 30010KT 28/00 A3009 RMK A01 T02760001  RH  017%=      5-min Rain = 0
KGU1 131754Z 28008KT 28/01 A3009 RMK A01 T02780009  RH  018%=      5-min Rain = 0
KGU1 131755Z 29009KT 28/01 A3009 RMK A01 T02780005  RH  017%=      5-min Rain = 0
KGU1 131756Z 30011KT 28/01 A3009 RMK A01 T02790005  RH  017%=      5-min Rain = 0
KGU1 131757Z 30011KT 28/00 A3009 RMK A01 T02810002  RH  017%=      5-min Rain = 0
KGU1 131758Z 29009KT 28/01 A3009 RMK A01 T02830010  RH  017%=      5-min Rain = 0
KGU1 131759Z 29010KT 29/01 A3009 RMK A01 T02870011  RH  017%=      5-min Rain = 0
KGU1 131800Z 29010KT 29/01 A3009 RMK A01 T02890009  RH  017%=      5-min Rain = 0
KGU1 131801Z 30009KT 29/01 A3009 RMK A01 T02910008  RH  016%=      5-min Rain = 0
KGU1 131802Z 30010KT 29/01 A3009 RMK A01 T02920007  RH  016%=      5-min Rain = 0
KGU1 131803Z 29011KT 29/01 A3009 RMK A01 T02920010  RH  016%=      5-min Rain = 0
KGU1 131804Z 30010KT 29/01 A3009 RMK A01 T02920007  RH  016%=      5-min Rain = 0
KGU1 131805Z 30010KT 29/01 A3009 RMK A01 T02930009  RH  016%=      5-min Rain = 0
KGU1 131806Z 29010KT 29/01 A3009 RMK A01 T02930011  RH  016%=      5-min Rain = 0
KGU1 131807Z 29008KT 29/01 A3009 RMK A01 T02940006  RH  016%=      5-min Rain = 0
KGU1 131808Z 29010KT 29/01 A3009 RMK A01 T02930013  RH  017%=      5-min Rain = 0
KGU1 131809Z 30013KT 29/01 A3009 RMK A01 T02940010  RH  016%=      5-min Rain = 0
KGU1 131810Z 28011KT 29/01 A3009 RMK A01 T02940006  RH  016%=      5-min Rain = 0
KGU1 131811Z 29009KT 29/01 A3009 RMK A01 T02940007  RH  016%=      5-min Rain = 0
KGU1 131812Z 29011KT 29/01 A3009 RMK A01 T02940010  RH  016%=      5-min Rain = 0
KGU1 131813Z 29012KT 29/01 A3009 RMK A01 T02930012  RH  017%=      5-min Rain = 0
KGU1 131814Z 31010KT 29/01 A3009 RMK A01 T02940012  RH  016%=      5-min Rain = 0
KGU1 131815Z 28009KT 30/02 A3009 RMK A01 T02970018  RH  017%=      5-min Rain = 0
KGU1 131816Z 30010KT 30/01 A3009 RMK A01 T02980012  RH  016%=      5-min Rain = 0
KGU1 131817Z 31008KT 30/01 A3009 RMK A01 T02960008  RH  016%=      5-min Rain = 0
KGU1 131818Z 28006KT 30/01 A3009 RMK A01 T02950012  RH  016%=      5-min Rain = 0
KGU1 131819Z 25008KT 30/02 A3008 RMK A01 T02970016  RH  017%=      5-min Rain = 0
KGU1 131820Z 26009KT 30/01 A3008 RMK A01 T02960013  RH  016%=      5-min Rain = 0
KGU1 131821Z 25008KT 30/02 A3008 RMK A01 T02970015  RH  017%=      5-min Rain = 0
KGU1 131822Z 28007KT 30/01 A3008 RMK A01 T02970013  RH  016%=      5-min Rain = 0
KGU1 131823Z 31007KT 30/02 A3009 RMK A01 T02980015  RH  016%=      5-min Rain = 0
KGU1 131824Z 31005KT 30/02 A3008 RMK A01 T02980015  RH  016%=      5-min Rain = 0
KGU1 131825Z 26006KT 30/02 A3008 RMK A01 T03010018  RH  017%=      5-min Rain = 0
KGU1 131826Z 23007KT 30/01 A3008 RMK A01 T03000010  RH  016%=      5-min Rain = 0
KGU1 131827Z 24005KT 30/02 A3008 RMK A01 T03000020  RH  017%=      5-min Rain = 0
KGU1 131828Z 23006KT 30/02 A3008 RMK A01 T03010019  RH  017%=      5-min Rain = 0
KGU1 131829Z 27009KT 30/01 A3008 RMK A01 T03010014  RH  016%=      5-min Rain = 0
KGU1 131830Z 29008G13KT 30/01 A3008 RMK A01 T03000014  RH  016%=      5-min Rain = 0
KGU1 131831Z 31011KT 30/01 A3008 RMK A01 T02970008  RH  016%=      5-min Rain = 0
KGU1 131832Z 31010KT 30/01 A3008 RMK A01 T02960012  RH  016%=      5-min Rain = 0
KGU1 131833Z 30008KT 30/01 A3008 RMK A01 T02960014  RH  016%=      5-min Rain = 0
KGU1 131834Z 24010KT 30/01 A3008 RMK A01 T02970013  RH  016%=      5-min Rain = 0
KGU1 131835Z 23011KT 30/01 A3008 RMK A01 T02960012  RH  016%=      5-min Rain = 0
KGU1 131836Z 21004KT 29/01 A3008 RMK A01 T02930011  RH  016%=      5-min Rain = 0
KGU1 131837Z 28006KT 29/01 A3008 RMK A01 T02920013  RH  017%=      5-min Rain = 0
KGU1 131838Z 21008G13KT 29/02 A3008 RMK A01 T02910020  RH  018%=      5-min Rain = 0
KGU1 131839Z 22010KT 29/01 A3008 RMK A01 T02930013  RH  017%=      5-min Rain = 0
KGU1 131840Z 23004KT 29/02 A3008 RMK A01 T02920016  RH  017%=      5-min Rain = 0
KGU1 131841Z 23006KT 29/02 A3008 RMK A01 T02940019  RH  017%=      5-min Rain = 0
KGU1 131842Z 26009KT 30/02 A3008 RMK A01 T02960021  RH  017%=      5-min Rain = 0
KGU1 131843Z 30007KT 30/02 A3008 RMK A01 T02980017  RH  017%=      5-min Rain = 0
KGU1 131844Z 31010G15KT 30/02 A3008 RMK A01 T02980020  RH  017%=      5-min Rain = 0
KGU1 131845Z 32007KT 30/02 A3008 RMK A01 T02990022  RH  017%=      5-min Rain = 0
KGU1 131846Z 32009KT 30/02 A3008 RMK A01 T03000021  RH  017%=      5-min Rain = 0
KGU1 131847Z 31010KT 30/02 A3008 RMK A01 T03010018  RH  017%=      5-min Rain = 0
KGU1 131848Z 29005KT 30/02 A3008 RMK A01 T02980016  RH  017%=      5-min Rain = 0
KGU1 131849Z 31003KT 30/02 A3008 RMK A01 T02990021  RH  017%=      5-min Rain = 0
KGU1 131850Z 31009G14KT 30/02 A3008 RMK A01 T03010023  RH  017%=      5-min Rain = 0
KGU1 131851Z 32010KT 30/02 A3008 RMK A01 T03000018  RH  017%=      5-min Rain = 0
KGU1 131852Z 32007KT 30/02 A3008 RMK A01 T02980023  RH  017%=      5-min Rain = 0
KGU1 131853Z 31009KT 30/03 A3008 RMK A01 T03010025  RH  017%=      5-min Rain = 0
KGU1 131854Z 27006KT 30/03 A3007 RMK A01 T03010026  RH  017%=      5-min Rain = 0
KGU1 131855Z 29009KT 30/03 A3008 RMK A01 T03030025  RH  017%=      5-min Rain = 0
KGU1 131856Z 29010KT 30/02 A3008 RMK A01 T03020020  RH  017%=      5-min Rain = 0
KGU1 131857Z 30011KT 30/02 A3007 RMK A01 T02990023  RH  017%=      5-min Rain = 0
KGU1 131858Z 33009KT 30/02 A3007 RMK A01 T02980021  RH  017%=      5-min Rain = 0
KGU1 131859Z 35006KT 30/03 A3007 RMK A01 T02980025  RH  018%=      5-min Rain = 0
KGU1 131900Z 09005KT 30/03 A3007 RMK A01 T02990025  RH  018%=      5-min Rain = 0
KGU1 131901Z 30006G13KT 30/02 A3007 RMK A01 T02990021  RH  017%=      5-min Rain = 0
KGU1 131902Z 30012KT 30/02 A3007 RMK A01 T03000024  RH  017%=      5-min Rain = 0
KGU1 131903Z 27009KT 30/02 A3007 RMK A01 T03020023  RH  017%=      5-min Rain = 0
KGU1 131904Z 25006KT 30/02 A3007 RMK A01 T03040021  RH  017%=      5-min Rain = 0
KGU1 131905Z 24005KT 31/03 A3007 RMK A01 T03060026  RH  017%=      5-min Rain = 0
KGU1 131906Z 29005KT 31/03 A3007 RMK A01 T03080025  RH  017%=      5-min Rain = 0
KGU1 131907Z 28005KT 31/03 A3007 RMK A01 T03090028  RH  017%=      5-min Rain = 0
KGU1 131908Z 31007KT 31/02 A3007 RMK A01 T03100024  RH  016%=      5-min Rain = 0
KGU1 131909Z 33007KT 31/02 A3007 RMK A01 T03080019  RH  016%=      5-min Rain = 0
KGU1 131910Z 31004KT 31/02 A3007 RMK A01 T03050018  RH  016%=      5-min Rain = 0
KGU1 131911Z 33005KT 31/02 A3007 RMK A01 T03050024  RH  017%=      5-min Rain = 0
KGU1 131912Z 27004KT 31/02 A3007 RMK A01 T03050023  RH  017%=      5-min Rain = 0
KGU1 131913Z 22007KT 31/02 A3007 RMK A01 T03050023  RH  017%=      5-min Rain = 0
KGU1 131914Z 23005KT 31/02 A3007 RMK A01 T03060018  RH  016%=      5-min Rain = 0
KGU1 131915Z 26005G10KT 31/02 A3007 RMK A01 T03070019  RH  016%=      5-min Rain = 0
KGU1 131916Z 26006KT 31/02 A3007 RMK A01 T03060019  RH  016%=      5-min Rain = 0
KGU1 131917Z 28002KT 31/02 A3007 RMK A01 T03050017  RH  016%=      5-min Rain = 0
KGU1 131918Z 28007KT 31/02 A3007 RMK A01 T03050023  RH  017%=      5-min Rain = 0
KGU1 131919Z 28006G11KT 31/02 A3007 RMK A01 T03060021  RH  016%=      5-min Rain = 0
KGU1 131920Z 27005G10KT 31/02 A3007 RMK A01 T03060022  RH  016%=      5-min Rain = 0
KGU1 131921Z 28006KT 31/03 A3006 RMK A01 T03060026  RH  017%=      5-min Rain = 0
KGU1 131922Z 29008KT 31/02 A3007 RMK A01 T03070023  RH  017%=      5-min Rain = 0
KGU1 131923Z 28007KT 31/02 A3006 RMK A01 T03050023  RH  017%=      5-min Rain = 0
KGU1 131924Z 30009KT 31/03 A3006 RMK A01 T03060025  RH  017%=      5-min Rain = 0
KGU1 131925Z 28008G13KT 30/02 A3006 RMK A01 T03040021  RH  016%=      5-min Rain = 0
KGU1 131926Z 26002KT 30/02 A3006 RMK A01 T03030024  RH  017%=      5-min Rain = 0
KGU1 131927Z 32004KT 30/02 A3006 RMK A01 T03040024  RH  017%=      5-min Rain = 0
KGU1 131928Z 33004KT 30/02 A3006 RMK A01 T03040022  RH  017%=      5-min Rain = 0
KGU1 131929Z 31008KT 31/03 A3006 RMK A01 T03060026  RH  017%=      5-min Rain = 0
KGU1 131930Z 35007KT 30/02 A3006 RMK A01 T03040017  RH  016%=      5-min Rain = 0
KGU1 131931Z 29006G11KT 30/02 A3006 RMK A01 T03030024  RH  017%=      5-min Rain = 0
KGU1 131932Z 26010KT 30/03 A3006 RMK A01 T03040026  RH  017%=      5-min Rain = 0
KGU1 131933Z 27010KT 31/02 A3006 RMK A01 T03050024  RH  017%=      5-min Rain = 0
KGU1 131934Z 25008KT 31/02 A3006 RMK A01 T03050024  RH  017%=      5-min Rain = 0
KGU1 131935Z 24005KT 31/03 A3006 RMK A01 T03050030  RH  018%=      5-min Rain = 0
KGU1 131936Z 23006KT 31/03 A3006 RMK A01 T03070032  RH  018%=      5-min Rain = 0
KGU1 131937Z 28006KT 31/02 A3006 RMK A01 T03080022  RH  016%=      5-min Rain = 0
KGU1 131938Z 28009KT 31/03 A3006 RMK A01 T03080028  RH  017%=      5-min Rain = 0
KGU1 131939Z 28007KT 31/03 A3006 RMK A01 T03100029  RH  017%=      5-min Rain = 0
KGU1 131940Z 28009KT 31/02 A3006 RMK A01 T03100023  RH  016%=      5-min Rain = 0
KGU1 131941Z 27010KT 31/03 A3005 RMK A01 T03090026  RH  017%=      5-min Rain = 0
KGU1 131942Z 29007KT 31/02 A3005 RMK A01 T03090021  RH  016%=      5-min Rain = 0
KGU1 131943Z 28006KT 31/03 A3005 RMK A01 T03070028  RH  017%=      5-min Rain = 0
KGU1 131944Z 28008KT 31/03 A3005 RMK A01 T03100029  RH  017%=      5-min Rain = 0
KGU1 131945Z 26008KT 31/02 A3005 RMK A01 T03100023  RH  016%=      5-min Rain = 0
KGU1 131946Z 27006KT 31/03 A3005 RMK A01 T03110032  RH  017%=      5-min Rain = 0
KGU1 131947Z 27010KT 31/03 A3005 RMK A01 T03130031  RH  017%=      5-min Rain = 0
KGU1 131948Z 27010KT 31/03 A3005 RMK A01 T03140025  RH  016%=      5-min Rain = 0
KGU1 131949Z 27009KT 31/03 A3005 RMK A01 T03130028  RH  017%=      5-min Rain = 0
KGU1 131950Z 28009KT 31/03 A3005 RMK A01 T03140025  RH  016%=      5-min Rain = 0
KGU1 131951Z 28010KT 31/03 A3005 RMK A01 T03130027  RH  016%=      5-min Rain = 0
KGU1 131952Z 29009KT 31/02 A3005 RMK A01 T03120023  RH  016%=      5-min Rain = 0
KGU1 131953Z 28010KT 31/03 A3005 RMK A01 T03120026  RH  016%=      5-min Rain = 0
KGU1 131954Z 28007KT 31/03 A3005 RMK A01 T03110026  RH  016%=      5-min Rain = 0
KGU1 131955Z 28009KT 31/03 A3005 RMK A01 T03120025  RH  016%=      5-min Rain = 0
KGU1 131956Z 30008KT 31/02 A3005 RMK A01 T03110023  RH  016%=      5-min Rain = 0
KGU1 131957Z 28009KT 31/03 A3004 RMK A01 T03140031  RH  017%=      5-min Rain = 0
KGU1 131958Z 29008KT 31/02 A3005 RMK A01 T03140020  RH  016%=      5-min Rain = 0
KGU1 131959Z 31007KT 31/02 A3004 RMK A01 T03130023  RH  016%=      5-min Rain = 0
KGU1 132000Z 29006KT 31/02 A3004 RMK A01 T03110018  RH  016%=      5-min Rain = 0
KGU1 132001Z 28010KT 31/02 A3004 RMK A01 T03120024  RH  016%=      5-min Rain = 0
KGU1 132002Z 27011KT 31/02 A3004 RMK A01 T03130018  RH  015%=      5-min Rain = 0
KGU1 132003Z 27009KT 31/02 A3004 RMK A01 T03130020  RH  016%=      5-min Rain = 0
KGU1 132004Z 29010KT 31/02 A3004 RMK A01 T03120022  RH  016%=      5-min Rain = 0
KGU1 132005Z 27008KT 31/03 A3004 RMK A01 T03120025  RH  016%=      5-min Rain = 0
KGU1 132006Z 27006KT 31/02 A3004 RMK A01 T03120024  RH  016%=      5-min Rain = 0
KGU1 132007Z 28008KT 31/02 A3004 RMK A01 T03130020  RH  016%=      5-min Rain = 0
KGU1 132008Z 28008KT 31/02 A3004 RMK A01 T03120023  RH  016%=      5-min Rain = 0
KGU1 132009Z 28008KT 31/02 A3004 RMK A01 T03120018  RH  016%=      5-min Rain = 0
KGU1 132010Z 28009KT 31/03 A3004 RMK A01 T03140026  RH  016%=      5-min Rain = 0
KGU1 132011Z 29010KT 32/02 A3004 RMK A01 T03150023  RH  016%=      5-min Rain = 0
KGU1 132012Z 28008KT 32/02 A3004 RMK A01 T03160020  RH  015%=      5-min Rain = 0
KGU1 132013Z 26007KT 32/02 A3004 RMK A01 T03150023  RH  016%=      5-min Rain = 0
KGU1 132014Z 26007G12KT 32/03 A3003 RMK A01 T03160027  RH  016%=      5-min Rain = 0
KGU1 132015Z 29010KT 32/02 A3003 RMK A01 T03160023  RH  016%=      5-min Rain = 0
KGU1 132016Z 27006KT 32/02 A3003 RMK A01 T03180024  RH  016%=      5-min Rain = 0
KGU1 132017Z 28008G13KT 32/03 A3003 RMK A01 T03200026  RH  016%=      5-min Rain = 0
KGU1 132018Z 28012KT 32/02 A3003 RMK A01 T03190015  RH  015%=      5-min Rain = 0
KGU1 132019Z 27010KT 32/01 A3003 RMK A01 T03170014  RH  015%=      5-min Rain = 0
KGU1 132020Z 27009KT 32/02 A3003 RMK A01 T03160021  RH  015%=      5-min Rain = 0
KGU1 132021Z 27010KT 32/02 A3003 RMK A01 T03170020  RH  015%=      5-min Rain = 0
KGU1 132022Z 28010KT 32/02 A3003 RMK A01 T03180022  RH  015%=      5-min Rain = 0
KGU1 132023Z 28010KT 32/02 A3003 RMK A01 T03190019  RH  015%=      5-min Rain = 0
KGU1 132024Z 28009KT 32/02 A3003 RMK A01 T03180016  RH  015%=      5-min Rain = 0
KGU1 132025Z 28009KT 32/02 A3003 RMK A01 T03180017  RH  015%=      5-min Rain = 0
KGU1 132026Z 27009KT 32/02 A3003 RMK A01 T03170016  RH  015%=      5-min Rain = 0
KGU1 132027Z 27009KT 32/02 A3003 RMK A01 T03160018  RH  015%=      5-min Rain = 0
KGU1 132028Z 27010KT 32/02 A3003 RMK A01 T03160019  RH  015%=      5-min Rain = 0
KGU1 132029Z 28008KT 32/02 A3003 RMK A01 T03150017  RH  015%=      5-min Rain = 0
KGU1 132030Z 30005KT 31/01 A3003 RMK A01 T03140014  RH  015%=      5-min Rain = 0
KGU1 132031Z 30004KT 31/02 A3003 RMK A01 T03130015  RH  015%=      5-min Rain = 0
KGU1 132032Z 26003KT 31/02 A3003 RMK A01 T03130024  RH  016%=      5-min Rain = 0
KGU1 132033Z 27005KT 32/02 A3003 RMK A01 T03160021  RH  015%=      5-min Rain = 0
KGU1 132034Z 31012KT 32/01 A3003 RMK A01 T03160014  RH  015%=      5-min Rain = 0
KGU1 132035Z 31009KT 31/01 A3003 RMK A01 T03140009  RH  014%=      5-min Rain = 0
KGU1 132036Z 30004KT 31/01 A3003 RMK A01 T03120011  RH  015%=      5-min Rain = 0
KGU1 132037Z 29009KT 31/02 A3003 RMK A01 T03140023  RH  016%=      5-min Rain = 0
KGU1 132038Z 30007KT 31/02 A3003 RMK A01 T03130017  RH  015%=      5-min Rain = 0
KGU1 132039Z 29009KT 31/02 A3003 RMK A01 T03140018  RH  015%=      5-min Rain = 0
KGU1 132040Z 30009KT 31/02 A3003 RMK A01 T03140015  RH  015%=      5-min Rain = 0
KGU1 132041Z 29010KT 31/02 A3003 RMK A01 T03130015  RH  015%=      5-min Rain = 0
KGU1 132042Z 29010KT 31/02 A3003 RMK A01 T03140017  RH  015%=      5-min Rain = 0
KGU1 132043Z 29009KT 32/02 A3003 RMK A01 T03150022  RH  016%=      5-min Rain = 0
KGU1 132044Z 29007KT 32/01 A3003 RMK A01 T03160014  RH  015%=      5-min Rain = 0
KGU1 132045Z 31007KT 32/02 A3003 RMK A01 T03160015  RH  015%=      5-min Rain = 0
KGU1 132046Z 29006KT 32/02 A3003 RMK A01 T03150016  RH  015%=      5-min Rain = 0
KGU1 132047Z 29004KT 32/02 A3003 RMK A01 T03160017  RH  015%=      5-min Rain = 0
KGU1 132048Z 28006G11KT 32/02 A3003 RMK A01 T03160017  RH  015%=      5-min Rain = 0
KGU1 132049Z 24009KT 32/01 A3002 RMK A01 T03170014  RH  015%=      5-min Rain = 0
KGU1 132050Z 28010KT 32/02 A3003 RMK A01 T03190019  RH  015%=      5-min Rain = 0
KGU1 132051Z 28008KT 32/02 A3003 RMK A01 T03180015  RH  015%=      5-min Rain = 0
KGU1 132052Z 27006KT 32/02 A3002 RMK A01 T03190016  RH  015%=      5-min Rain = 0
KGU1 132053Z 26010KT 32/02 A3002 RMK A01 T03200019  RH  015%=      5-min Rain = 0
KGU1 132054Z 27012KT 32/01 A3002 RMK A01 T03190012  RH  014%=      5-min Rain = 0
KGU1 132055Z 27010KT 32/01 A3002 RMK A01 T03170010  RH  014%=      5-min Rain = 0
KGU1 132056Z 29011KT 32/01 A3002 RMK A01 T03160014  RH  015%=      5-min Rain = 0
KGU1 132057Z 29012KT 32/02 A3003 RMK A01 T03170017  RH  015%=      5-min Rain = 0
KGU1 132058Z 28010KT 32/02 A3003 RMK A01 T03170016  RH  015%=      5-min Rain = 0
KGU1 132059Z 30009KT 32/02 A3003 RMK A01 T03170019  RH  015%=      5-min Rain = 0
KGU1 132100Z 28007KT 32/02 A3003 RMK A01 T03150016  RH  015%=      5-min Rain = 0
KGU1 132101Z 27006KT 32/02 A3002 RMK A01 T03150020  RH  015%=      5-min Rain = 0
KGU1 132102Z 28007KT 32/02 A3002 RMK A01 T03170021  RH  015%=      5-min Rain = 0
KGU1 132103Z 25006KT 32/01 A3002 RMK A01 T03160014  RH  015%=      5-min Rain = 0
KGU1 132104Z 24009KT 32/02 A3002 RMK A01 T03160018  RH  015%=      5-min Rain = 0
KGU1 132105Z 23012KT 32/01 A3002 RMK A01 T03150012  RH  015%=      5-min Rain = 0
KGU1 132106Z 22009KT 31/01 A3002 RMK A01 T03130012  RH  015%=      5-min Rain = 0
KGU1 132107Z 21007KT 31/02 A3002 RMK A01 T03120016  RH  015%=      5-min Rain = 0
KGU1 132108Z 18006KT 31/02 A3002 RMK A01 T03130017  RH  015%=      5-min Rain = 0
KGU1 132109Z 18006KT 31/01 A3002 RMK A01 T03140014  RH  015%=      5-min Rain = 0
KGU1 132110Z 18005KT 31/01 A3002 RMK A01 T03140014  RH  015%=      5-min Rain = 0
KGU1 132111Z 21003KT 32/03 A3002 RMK A01 T03150028  RH  016%=      5-min Rain = 0
KGU1 132112Z 25007KT 32/02 A3002 RMK A01 T03180020  RH  015%=      5-min Rain = 0
KGU1 132113Z 26008KT 32/02 A3002 RMK A01 T03190023  RH  015%=      5-min Rain = 0
KGU1 132114Z 27007KT 32/02 A3002 RMK A01 T03200020  RH  015%=      5-min Rain = 0
KGU1 132115Z 26007KT 32/02 A3002 RMK A01 T03200019  RH  015%=      5-min Rain = 0
KGU1 132116Z 25006KT 32/02 A3002 RMK A01 T03210020  RH  015%=      5-min Rain = 0
KGU1 132117Z 26009KT 32/02 A3002 RMK A01 T03200019  RH  015%=      5-min Rain = 0
KGU1 132118Z 29007KT 32/02 A3002 RMK A01 T03180019  RH  015%=      5-min Rain = 0
KGU1 132119Z 26007KT 32/03 A3002 RMK A01 T03190026  RH  016%=      5-min Rain = 0
KGU1 132120Z 27011KT 32/02 A3002 RMK A01 T03200016  RH  015%=      5-min Rain = 0
KGU1 132121Z 26010KT 32/02 A3002 RMK A01 T03200017  RH  015%=      5-min Rain = 0
KGU1 132122Z 27010KT 32/02 A3002 RMK A01 T03210021  RH  015%=      5-min Rain = 0
KGU1 132123Z 28013KT 32/02 A3002 RMK A01 T03220016  RH  014%=      5-min Rain = 0
KGU1 132124Z 28008KT 32/01 A3002 RMK A01 T03180013  RH  014%=      5-min Rain = 0
KGU1 132125Z 29007KT 32/02 A3002 RMK A01 T03160015  RH  015%=      5-min Rain = 0
KGU1 132126Z 27006KT 31/01 A3002 RMK A01 T03140012  RH  015%=      5-min Rain = 0
KGU1 132127Z 23006KT 31/01 A3002 RMK A01 T03140013  RH  015%=      5-min Rain = 0
KGU1 132128Z 24005KT 31/02 A3002 RMK A01 T03140015  RH  015%=      5-min Rain = 0
KGU1 132129Z 24003KT 32/01 A3002 RMK A01 T03160014  RH  015%=      5-min Rain = 0
KGU1 132130Z 24006KT 32/01 A3002 RMK A01 T03170006  RH  014%=      5-min Rain = 0
KGU1 132131Z 25005KT 32/01 A3002 RMK A01 T03180014  RH  015%=      5-min Rain = 0
KGU1 132132Z 28005KT 32/02 A3002 RMK A01 T03190016  RH  015%=      5-min Rain = 0
KGU1 132133Z 29007KT 32/01 A3002 RMK A01 T03190009  RH  014%=      5-min Rain = 0
KGU1 132134Z 28005KT 32/02 A3002 RMK A01 T03190016  RH  015%=      5-min Rain = 0
KGU1 132135Z 27002KT 32/02 A3002 RMK A01 T03210023  RH  015%=      5-min Rain = 0
KGU1 132136Z 31006KT 32/02 A3002 RMK A01 T03220015  RH  014%=      5-min Rain = 0
KGU1 132137Z 32008KT 32/01 A3002 RMK A01 T03180010  RH  014%=      5-min Rain = 0
KGU1 132138Z 33005KT 32/01 A3002 RMK A01 T03160011  RH  014%=      5-min Rain = 0
KGU1 132139Z 31003KT 32/01 A3001 RMK A01 T03170013  RH  015%=      5-min Rain = 0
KGU1 132140Z 32003KT 32/02 A3001 RMK A01 T03180016  RH  015%=      5-min Rain = 0
KGU1 132141Z 31005KT 32/02 A3001 RMK A01 T03200023  RH  015%=      5-min Rain = 0
KGU1 132142Z 32010KT 32/02 A3002 RMK A01 T03200018  RH  015%=      5-min Rain = 0
KGU1 132143Z 31010KT 32/02 A3002 RMK A01 T03190016  RH  015%=      5-min Rain = 0
KGU1 132144Z 29009KT 32/02 A3001 RMK A01 T03170019  RH  015%=      5-min Rain = 0
KGU1 132145Z 30006KT 32/02 A3001 RMK A01 T03160018  RH  015%=      5-min Rain = 0
KGU1 132146Z 29005KT 32/02 A3001 RMK A01 T03170022  RH  016%=      5-min Rain = 0
KGU1 132147Z 27004KT 32/02 A3001 RMK A01 T03180018  RH  015%=      5-min Rain = 0
KGU1 132148Z 26005KT 32/02 A3001 RMK A01 T03190021  RH  015%=      5-min Rain = 0
KGU1 132149Z 27007KT 32/03 A3001 RMK A01 T03200028  RH  016%=      5-min Rain = 0
KGU1 132150Z 28006KT 32/02 A3001 RMK A01 T03210016  RH  014%=      5-min Rain = 0
KGU1 132151Z 27005KT 32/02 A3001 RMK A01 T03200020  RH  015%=      5-min Rain = 0
KGU1 132152Z 28004KT 32/01 A3001 RMK A01 T03200014  RH  014%=      5-min Rain = 0
KGU1 132153Z 28005KT 32/02 A3001 RMK A01 T03200022  RH  015%=      5-min Rain = 0
KGU1 132154Z 31006KT 32/02 A3001 RMK A01 T03200021  RH  015%=      5-min Rain = 0
KGU1 132155Z 28009KT 32/03 A3001 RMK A01 T03220025  RH  015%=      5-min Rain = 0
KGU1 132156Z 27007KT 32/02 A3001 RMK A01 T03230019  RH  015%=      5-min Rain = 0
KGU1 132157Z 29007KT 32/02 A3001 RMK A01 T03230022  RH  015%=      5-min Rain = 0
KGU1 132158Z 29008KT 32/02 A3001 RMK A01 T03240020  RH  015%=      5-min Rain = 0
KGU1 132159Z 29010KT 32/01 A3001 RMK A01 T03220014  RH  014%=      5-min Rain = 0
KGU1 132200Z 26009KT 32/02 A3001 RMK A01 T03190016  RH  015%=      5-min Rain = 0
KGU1 132201Z 27007KT 32/02 A3001 RMK A01 T03180018  RH  015%=      5-min Rain = 0
KGU1 132202Z 29008KT 32/02 A3001 RMK A01 T03180019  RH  015%=      5-min Rain = 0
KGU1 132203Z 29009KT 32/02 A3001 RMK A01 T03190018  RH  015%=      5-min Rain = 0
KGU1 132204Z 29008KT 32/02 A3001 RMK A01 T03180018  RH  015%=      5-min Rain = 0
KGU1 132205Z 29006KT 32/02 A3001 RMK A01 T03190022  RH  015%=      5-min Rain = 0
KGU1 132206Z 31006KT 32/02 A3001 RMK A01 T03190020  RH  015%=      5-min Rain = 0
KGU1 132207Z 29007KT 32/02 A3001 RMK A01 T03200024  RH  015%=      5-min Rain = 0
KGU1 132208Z 28008KT 32/02 A3001 RMK A01 T03210021  RH  015%=      5-min Rain = 0
KGU1 132209Z 31007KT 32/02 A3001 RMK A01 T03190018  RH  015%=      5-min Rain = 0
KGU1 132210Z 30006KT 32/01 A3001 RMK A01 T03170012  RH  014%=      5-min Rain = 0
KGU1 132211Z 30005KT 32/03 A3001 RMK A01 T03160028  RH  016%=      5-min Rain = 0
KGU1 132212Z 30009KT 32/03 A3001 RMK A01 T03180027  RH  016%=      5-min Rain = 0
KGU1 132213Z 30007KT 32/02 A3001 RMK A01 T03180019  RH  015%=      5-min Rain = 0
KGU1 132214Z 29007KT 32/02 A3001 RMK A01 T03180021  RH  015%=      5-min Rain = 0
KGU1 132215Z 30010KT 32/02 A3001 RMK A01 T03160018  RH  015%=      5-min Rain = 0
KGU1 132216Z 30008KT 32/02 A3001 RMK A01 T03150019  RH  015%=      5-min Rain = 0
KGU1 132217Z 28006KT 32/03 A3001 RMK A01 T03160028  RH  016%=      5-min Rain = 0
KGU1 132218Z 26008KT 32/02 A3001 RMK A01 T03180024  RH  016%=      5-min Rain = 0
KGU1 132219Z 28008KT 32/02 A3001 RMK A01 T03180022  RH  015%=      5-min Rain = 0
KGU1 132220Z 28011KT 32/02 A3001 RMK A01 T03180019  RH  015%=      5-min Rain = 0
KGU1 132221Z 29009KT 32/02 A3001 RMK A01 T03180019  RH  015%=      5-min Rain = 0
KGU1 132222Z 28005KT 32/02 A3001 RMK A01 T03190022  RH  015%=      5-min Rain = 0
KGU1 132223Z 29007G12KT 32/02 A3001 RMK A01 T03200022  RH  015%=      5-min Rain = 0
KGU1 132224Z 29011KT 32/02 A3001 RMK A01 T03190017  RH  015%=      5-min Rain = 0
KGU1 132225Z 29009KT 32/02 A3001 RMK A01 T03170019  RH  015%=      5-min Rain = 0
KGU1 132226Z 29010KT 32/02 A3001 RMK A01 T03170019  RH  015%=      5-min Rain = 0
KGU1 132227Z 28008KT 32/02 A3001 RMK A01 T03180023  RH  016%=      5-min Rain = 0
KGU1 132228Z 27009KT 32/02 A3001 RMK A01 T03190017  RH  015%=      5-min Rain = 0
KGU1 132229Z 29009KT 32/02 A3001 RMK A01 T03200016  RH  015%=      5-min Rain = 0
KGU1 132230Z 27009KT 32/02 A3001 RMK A01 T03190019  RH  015%=      5-min Rain = 0
KGU1 132231Z 27009KT 32/02 A3001 RMK A01 T03200020  RH  015%=      5-min Rain = 0
KGU1 132232Z 25006KT 32/02 A3001 RMK A01 T03190015  RH  015%=      5-min Rain = 0
KGU1 132233Z 29009KT 32/02 A3001 RMK A01 T03170017  RH  015%=      5-min Rain = 0
KGU1 132234Z 31007KT 31/01 A3001 RMK A01 T03140012  RH  015%=      5-min Rain = 0
KGU1 132235Z 28005KT 31/01 A3001 RMK A01 T03120013  RH  015%=      5-min Rain = 0
KGU1 132236Z 26012KT 31/02 A3001 RMK A01 T03120015  RH  015%=      5-min Rain = 0
KGU1 132237Z 25010KT 31/01 A3001 RMK A01 T03110012  RH  015%=      5-min Rain = 0
KGU1 132238Z 26007KT 31/02 A3001 RMK A01 T03100015  RH  015%=      5-min Rain = 0
KGU1 132239Z 28011G16KT 31/02 A3001 RMK A01 T03110020  RH  016%=      5-min Rain = 0
KGU1 132240Z 29006KT 31/02 A3001 RMK A01 T03110019  RH  016%=      5-min Rain = 0
KGU1 132241Z 29012KT 31/02 A3001 RMK A01 T03120023  RH  016%=      5-min Rain = 0
KGU1 132242Z 30013G18KT 31/02 A3001 RMK A01 T03100019  RH  016%=      5-min Rain = 0
KGU1 132243Z 32013KT 31/02 A3001 RMK A01 T03070021  RH  016%=      5-min Rain = 0
KGU1 132244Z 32011KT 31/02 A3001 RMK A01 T03050023  RH  017%=      5-min Rain = 0
KGU1 132245Z 32010KT 30/03 A3001 RMK A01 T03040025  RH  017%=      5-min Rain = 0
KGU1 132246Z 32013KT 30/02 A3001 RMK A01 T03020023  RH  017%=      5-min Rain = 0
KGU1 132247Z 33014G20KT 30/02 A3001 RMK A01 T03010024  RH  017%=      5-min Rain = 0
KGU1 132248Z 34017G23KT 30/02 A3002 RMK A01 T02990018  RH  017%=      5-min Rain = 0
KGU1 132249Z 35014G23KT 30/02 A3001 RMK A01 T02960020  RH  017%=      5-min Rain = 0
KGU1 132250Z 33018G26KT 29/02 A3002 RMK A01 T02940020  RH  017%=      5-min Rain = 0
KGU1 132251Z 34024KT 29/02 A3002 RMK A01 T02930018  RH  017%=      5-min Rain = 0
KGU1 132252Z 33021G26KT 29/02 A3002 RMK A01 T02900019  RH  018%=      5-min Rain = 0
KGU1 132253Z 34021G26KT 29/02 A3002 RMK A01 T02880019  RH  018%=      5-min Rain = 0
KGU1 132254Z 34018G24KT 29/02 A3002 RMK A01 T02870020  RH  018%=      5-min Rain = 0
KGU1 132255Z 33022G27KT 29/02 A3002 RMK A01 T02870020  RH  018%=      5-min Rain = 0
KGU1 132256Z 34020G25KT 29/02 A3002 RMK A01 T02860020  RH  018%=      5-min Rain = 0
KGU1 132257Z 32019KT 29/02 A3002 RMK A01 T02850020  RH  018%=      5-min Rain = 0
KGU1 132258Z 33017G23KT 29/02 A3002 RMK A01 T02850021  RH  018%=      5-min Rain = 0
KGU1 132259Z 33014G20KT 29/02 A3002 RMK A01 T02850023  RH  019%=      5-min Rain = 0
KGU1 132300Z 33015KT 28/02 A3002 RMK A01 T02840023  RH  019%=      5-min Rain = 0
KGU1 132301Z 34016KT 28/02 A3002 RMK A01 T02840024  RH  019%=      5-min Rain = 0
KGU1 132302Z 34017KT 28/03 A3002 RMK A01 T02830025  RH  019%=      5-min Rain = 0
KGU1 132303Z 32017G22KT 28/02 A3002 RMK A01 T02820024  RH  019%=      5-min Rain = 0
KGU1 132304Z 33014KT 28/03 A3002 RMK A01 T02810027  RH  020%=      5-min Rain = 0
KGU1 132305Z 33014KT 28/03 A3002 RMK A01 T02810028  RH  020%=      5-min Rain = 0
KGU1 132306Z 33015G20KT 28/03 A3002 RMK A01 T02800026  RH  020%=      5-min Rain = 0
KGU1 132307Z 33016G21KT 28/03 A3002 RMK A01 T02800026  RH  020%=      5-min Rain = 0
KGU1 132308Z 34017KT 28/02 A3002 RMK A01 T02810023  RH  019%=      5-min Rain = 0
KGU1 132309Z 33015KT 28/03 A3002 RMK A01 T02800025  RH  020%=      5-min Rain = 0
KGU1 132310Z 34015KT 28/03 A3002 RMK A01 T02810026  RH  020%=      5-min Rain = 0
KGU1 132311Z 34016KT 28/02 A3002 RMK A01 T02810024  RH  019%=      5-min Rain = 0
KGU1 132312Z 35011KT 28/03 A3002 RMK A01 T02810026  RH  020%=      5-min Rain = 0
KGU1 132313Z 36012KT 28/03 A3002 RMK A01 T02810025  RH  020%=      5-min Rain = 0
KGU1 132314Z 35014KT 28/02 A3002 RMK A01 T02810024  RH  019%=      5-min Rain = 0
KGU1 132315Z 35013KT 28/02 A3002 RMK A01 T02810023  RH  019%=      5-min Rain = 0
KGU1 132316Z 34011KT 28/03 A3001 RMK A01 T02810025  RH  019%=      5-min Rain = 0
KGU1 132317Z 34010KT 28/03 A3001 RMK A01 T02810026  RH  020%=      5-min Rain = 0
KGU1 132318Z 34012KT 28/03 A3002 RMK A01 T02810025  RH  019%=      5-min Rain = 0
KGU1 132319Z 34011KT 28/02 A3002 RMK A01 T02820024  RH  019%=      5-min Rain = 0
KGU1 132320Z 34010KT 28/02 A3002 RMK A01 T02820024  RH  019%=      5-min Rain = 0
KGU1 132321Z 34009KT 28/03 A3001 RMK A01 T02820025  RH  019%=      5-min Rain = 0
KGU1 132322Z 34010KT 28/03 A3002 RMK A01 T02820025  RH  019%=      5-min Rain = 0
KGU1 132323Z 35008KT 28/03 A3001 RMK A01 T02820026  RH  019%=      5-min Rain = 0
KGU1 132324Z 35007KT 28/03 A3001 RMK A01 T02820027  RH  020%=      5-min Rain = 0
KGU1 132325Z 34008KT 28/03 A3002 RMK A01 T02820027  RH  020%=      5-min Rain = 0
KGU1 132326Z 33009KT 28/03 A3002 RMK A01 T02820025  RH  019%=      5-min Rain = 0
KGU1 132327Z 33009KT 28/03 A3002 RMK A01 T02820025  RH  019%=      5-min Rain = 0
KGU1 132328Z 33010KT 28/03 A3002 RMK A01 T02820025  RH  019%=      5-min Rain = 0
KGU1 132329Z 33007KT 28/03 A3002 RMK A01 T02820026  RH  019%=      5-min Rain = 0
KGU1 132330Z 32007KT 28/03 A3001 RMK A01 T02820027  RH  020%=      5-min Rain = 0
KGU1 132331Z 32008KT 28/03 A3001 RMK A01 T02820025  RH  019%=      5-min Rain = 0
KGU1 132332Z 33009KT 28/03 A3002 RMK A01 T02820025  RH  019%=      5-min Rain = 0
KGU1 132333Z 33009KT 28/03 A3002 RMK A01 T02820025  RH  019%=      5-min Rain = 0
KGU1 132334Z 33010KT 28/02 A3002 RMK A01 T02820024  RH  019%=      5-min Rain = 0
KGU1 132335Z 33007KT 28/03 A3001 RMK A01 T02820025  RH  019%=      5-min Rain = 0
KGU1 132336Z 34008KT 28/02 A3001 RMK A01 T02820023  RH  019%=      5-min Rain = 0
KGU1 132337Z 33007KT 28/02 A3001 RMK A01 T02820023  RH  019%=      5-min Rain = 0
KGU1 132338Z 33003KT 28/02 A3001 RMK A01 T02830018  RH  018%=      5-min Rain = 0
KGU1 132339Z 31003KT 28/02 A3001 RMK A01 T02840022  RH  019%=      5-min Rain = 0
KGU1 132340Z 27005KT 28/03 A3001 RMK A01 T02840027  RH  019%=      5-min Rain = 0
KGU1 132341Z 28006KT 28/03 A3001 RMK A01 T02830029  RH  020%=      5-min Rain = 0
KGU1 132342Z 28004KT 28/03 A3001 RMK A01 T02820029  RH  020%=      5-min Rain = 0
KGU1 132343Z 28005KT 28/03 A3001 RMK A01 T02810029  RH  020%=      5-min Rain = 0
KGU1 132344Z 29005KT 28/03 A3001 RMK A01 T02810031  RH  020%=      5-min Rain = 0
KGU1 132345Z 28004KT 28/03 A3001 RMK A01 T02800033  RH  021%=      5-min Rain = 0
KGU1 132346Z 29004KT 28/03 A3001 RMK A01 T02790030  RH  020%=      5-min Rain = 0
KGU1 132347Z 30004KT 28/03 A3001 RMK A01 T02790032  RH  021%=      5-min Rain = 0
KGU1 132348Z 30006KT 28/03 A3001 RMK A01 T02780029  RH  020%=      5-min Rain = 0
KGU1 132349Z 30007KT 28/03 A3001 RMK A01 T02780032  RH  021%=      5-min Rain = 0
KGU1 132350Z 30007KT 28/03 A3001 RMK A01 T02780031  RH  021%=      5-min Rain = 0
KGU1 132351Z 31008KT 28/03 A3001 RMK A01 T02780030  RH  020%=      5-min Rain = 0
KGU1 132352Z 31007KT 28/03 A3001 RMK A01 T02780029  RH  020%=      5-min Rain = 0
KGU1 132353Z 31008KT 28/03 A3001 RMK A01 T02780028  RH  020%=      5-min Rain = 0
KGU1 132354Z 31007KT 28/03 A3001 RMK A01 T02790029  RH  020%=      5-min Rain = 0
KGU1 132355Z 31007KT 28/03 A3001 RMK A01 T02780032  RH  021%=      5-min Rain = 0
KGU1 132356Z 31008KT 28/03 A3001 RMK A01 T02780031  RH  021%=      5-min Rain = 0
KGU1 132357Z 31007KT 28/03 A3001 RMK A01 T02780032  RH  021%=      5-min Rain = 0
KGU1 132358Z 31007KT 28/03 A3001 RMK A01 T02780033  RH  021%=      5-min Rain = 0
KGU1 132359Z 31007KT 28/03 A3001 RMK A01 T02780033  RH  021%=      5-min Rain = 0
KGU1 140000Z 31007KT 28/03 A3001 RMK A01 T02780034  RH  021%=      5-min Rain = 0
KGU1 140001Z 31008KT 28/03 A3001 RMK A01 T02780032  RH  021%=      5-min Rain = 0
KGU1 140002Z 31008KT 28/03 A3001 RMK A01 T02780032  RH  021%=      5-min Rain = 0
KGU1 140003Z 31008KT 28/03 A3001 RMK A01 T02780034  RH  021%=      5-min Rain = 0
KGU1 140004Z 31007KT 28/04 A3001 RMK A01 T02770036  RH  021%=      5-min Rain = 0
KGU1 140005Z 31007KT 28/04 A3001 RMK A01 T02770035  RH  021%=      5-min Rain = 0
KGU1 140006Z 31007KT 28/04 A3001 RMK A01 T02770035  RH  021%=      5-min Rain = 0
KGU1 140007Z 31007KT 28/04 A3001 RMK A01 T02770035  RH  021%=      5-min Rain = 0
KGU1 140008Z 31007KT 28/03 A3001 RMK A01 T02770034  RH  021%=      5-min Rain = 0
KGU1 140009Z 31007KT 28/03 A3001 RMK A01 T02770034  RH  021%=      5-min Rain = 0
KGU1 140010Z 31006KT 28/04 A3001 RMK A01 T02770035  RH  021%=      5-min Rain = 0
KGU1 140011Z 30006KT 28/04 A3001 RMK A01 T02770036  RH  022%=      5-min Rain = 0
KGU1 140012Z 30007KT 28/04 A3001 RMK A01 T02770035  RH  021%=      5-min Rain = 0
KGU1 140013Z 31006KT 28/04 A3001 RMK A01 T02770035  RH  021%=      5-min Rain = 0
KGU1 140014Z 31006KT 28/04 A3001 RMK A01 T02770035  RH  021%=      5-min Rain = 0
KGU1 140015Z 31007KT 28/04 A3001 RMK A01 T02770035  RH  021%=      5-min Rain = 0
KGU1 140016Z 31005KT 28/04 A3001 RMK A01 T02770037  RH  022%=      5-min Rain = 0
KGU1 140017Z 31006KT 28/04 A3001 RMK A01 T02760039  RH  022%=      5-min Rain = 0
KGU1 140018Z 31006KT 28/04 A3001 RMK A01 T02760040  RH  022%=      5-min Rain = 0
KGU1 140019Z 31005KT 28/04 A3001 RMK A01 T02750041  RH  023%=      5-min Rain = 0
KGU1 140020Z 31004KT 27/04 A3001 RMK A01 T02740042  RH  023%=      5-min Rain = 0
KGU1 140021Z 31005KT 27/04 A3001 RMK A01 T02740040  RH  023%=      5-min Rain = 0
KGU1 140022Z 32005KT 27/04 A3001 RMK A01 T02740041  RH  023%=      5-min Rain = 0
KGU1 140023Z 31006KT 27/04 A3001 RMK A01 T02730040  RH  023%=      5-min Rain = 0
KGU1 140024Z 31006KT 27/04 A3001 RMK A01 T02730041  RH  023%=      5-min Rain = 0
KGU1 140025Z 31006KT 27/04 A3001 RMK A01 T02730041  RH  023%=      5-min Rain = 0
KGU1 140026Z 31007KT 27/04 A3001 RMK A01 T02730041  RH  023%=      5-min Rain = 0
KGU1 140027Z 31006KT 27/04 A3001 RMK A01 T02720041  RH  023%=      5-min Rain = 0
KGU1 140028Z 31007KT 27/04 A3001 RMK A01 T02720041  RH  023%=      5-min Rain = 0
KGU1 140029Z 31006KT 27/04 A3001 RMK A01 T02720041  RH  023%=      5-min Rain = 0
KGU1 140030Z 31006KT 27/04 A3001 RMK A01 T02720040  RH  023%=      5-min Rain = 0
KGU1 140031Z 31006KT 27/04 A3001 RMK A01 T02720040  RH  023%=      5-min Rain = 0
KGU1 140032Z 31007KT 27/04 A3001 RMK A01 T02720039  RH  023%=      5-min Rain = 0
KGU1 140033Z 31006KT 27/04 A3001 RMK A01 T02720039  RH  023%=      5-min Rain = 0
KGU1 140034Z 31007KT 27/04 A3001 RMK A01 T02720039  RH  023%=      5-min Rain = 0
KGU1 140035Z 31006KT 27/04 A3001 RMK A01 T02720039  RH  023%=      5-min Rain = 0
KGU1 140036Z 31007KT 27/04 A3001 RMK A01 T02720040  RH  023%=      5-min Rain = 0
KGU1 140037Z 31007KT 27/04 A3001 RMK A01 T02720040  RH  023%=      5-min Rain = 0
KGU1 140038Z 31006KT 27/04 A3001 RMK A01 T02720041  RH  023%=      5-min Rain = 0
KGU1 140039Z 31006KT 27/04 A3001 RMK A01 T02710041  RH  023%=      5-min Rain = 0
KGU1 140040Z 31006KT 27/04 A3001 RMK A01 T02710040  RH  023%=      5-min Rain = 0
KGU1 140041Z 30006KT 27/04 A3001 RMK A01 T02710040  RH  023%=      5-min Rain = 0
KGU1 140042Z 30005KT 27/04 A3001 RMK A01 T02710040  RH  023%=      5-min Rain = 0
KGU1 140043Z 29004KT 27/04 A3001 RMK A01 T02710042  RH  023%=      5-min Rain = 0
KGU1 140044Z 25004KT 27/05 A3001 RMK A01 T02710045  RH  024%=      5-min Rain = 0
KGU1 140045Z 25005KT 27/05 A3001 RMK A01 T02700047  RH  024%=      5-min Rain = 0
KGU1 140046Z 26005KT 27/05 A3001 RMK A01 T02690048  RH  024%=      5-min Rain = 0
KGU1 140047Z 28005KT 27/05 A3001 RMK A01 T02680047  RH  025%=      5-min Rain = 0
KGU1 140048Z 29005KT 27/05 A3001 RMK A01 T02680046  RH  025%=      5-min Rain = 0
KGU1 140049Z 30007KT 27/05 A3001 RMK A01 T02670045  RH  024%=      5-min Rain = 0
KGU1 140050Z 29005KT 27/05 A3001 RMK A01 T02670046  RH  025%=      5-min Rain = 0
KGU1 140051Z 28005KT 27/05 A3001 RMK A01 T02660047  RH  025%=      5-min Rain = 0
KGU1 140052Z 29005KT 27/05 A3001 RMK A01 T02660047  RH  025%=      5-min Rain = 0
KGU1 140053Z 29005KT 27/04 A3001 RMK A01 T02660044  RH  024%=      5-min Rain = 0
KGU1 140054Z 29006KT 27/04 A3001 RMK A01 T02660043  RH  024%=      5-min Rain = 0
KGU1 140055Z 29006KT 27/04 A3001 RMK A01 T02660044  RH  024%=      5-min Rain = 0
KGU1 140056Z 28006KT 27/05 A3001 RMK A01 T02660045  RH  024%=      5-min Rain = 0
KGU1 140057Z 28005KT 27/05 A3001 RMK A01 T02650045  RH  025%=      5-min Rain = 0
KGU1 140058Z 29006KT 27/04 A3001 RMK A01 T02650043  RH  024%=      5-min Rain = 0
KGU1 140059Z 29006KT 27/04 A3001 RMK A01 T02650043  RH  024%=      5-min Rain = 0
KGU1 140100Z 29006KT 27/04 A3001 RMK A01 T02650044  RH  025%=      5-min Rain = 0
KGU1 140101Z 27005KT 26/05 A3001 RMK A01 T02640047  RH  025%=      5-min Rain = 0
KGU1 140102Z 27006KT 26/04 A3001 RMK A01 T02640044  RH  025%=      5-min Rain = 0
KGU1 140103Z 28006KT 27/04 A3001 RMK A01 T02650042  RH  024%=      5-min Rain = 0
KGU1 140104Z 29005KT 26/05 A3001 RMK A01 T02640045  RH  025%=      5-min Rain = 0
KGU1 140105Z 29005KT 26/05 A3001 RMK A01 T02630046  RH  025%=      5-min Rain = 0
KGU1 140106Z 29007KT 26/04 A3001 RMK A01 T02610044  RH  025%=      5-min Rain = 0
KGU1 140107Z 29007KT 26/04 A3001 RMK A01 T02610043  RH  025%=      5-min Rain = 0
KGU1 140108Z 30008KT 26/04 A3001 RMK A01 T02610044  RH  025%=      5-min Rain = 0
KGU1 140109Z 30008KT 26/04 A3001 RMK A01 T02610043  RH  025%=      5-min Rain = 0
KGU1 140110Z 30008KT 26/04 A3001 RMK A01 T02610043  RH  025%=      5-min Rain = 0
KGU1 140111Z 30008KT 26/04 A3001 RMK A01 T02610042  RH  025%=      5-min Rain = 0
KGU1 140112Z 30007KT 26/04 A3001 RMK A01 T02610042  RH  025%=      5-min Rain = 0
KGU1 140113Z 30007KT 26/04 A3001 RMK A01 T02610042  RH  025%=      5-min Rain = 0
KGU1 140114Z 29006KT 26/04 A3001 RMK A01 T02600042  RH  025%=      5-min Rain = 0
KGU1 140115Z 28005KT 26/04 A3001 RMK A01 T02600041  RH  025%=      5-min Rain = 0
KGU1 140116Z 30006KT 26/04 A3001 RMK A01 T02590042  RH  025%=      5-min Rain = 0
KGU1 140117Z 29006KT 26/04 A3002 RMK A01 T02580044  RH  025%=      5-min Rain = 0
KGU1 140118Z 29006KT 26/04 A3002 RMK A01 T02570043  RH  026%=      5-min Rain = 0
KGU1 140119Z 28006KT 26/04 A3002 RMK A01 T02560043  RH  026%=      5-min Rain = 0
KGU1 140120Z 30007KT 25/04 A3002 RMK A01 T02540043  RH  026%=      5-min Rain = 0
KGU1 140121Z 30007KT 25/04 A3002 RMK A01 T02540043  RH  026%=      5-min Rain = 0
KGU1 140122Z 30008KT 25/04 A3002 RMK A01 T02530042  RH  026%=      5-min Rain = 0
KGU1 140123Z 30008KT 25/04 A3002 RMK A01 T02540041  RH  026%=      5-min Rain = 0
KGU1 140124Z 31008KT 26/04 A3002 RMK A01 T02550039  RH  025%=      5-min Rain = 0
KGU1 140125Z 31007KT 26/04 A3002 RMK A01 T02560038  RH  025%=      5-min Rain = 0
KGU1 140126Z 29007KT 26/04 A3002 RMK A01 T02570038  RH  025%=      5-min Rain = 0
KGU1 140127Z 29007KT 26/04 A3002 RMK A01 T02560039  RH  025%=      5-min Rain = 0
KGU1 140128Z 29006KT 26/04 A3002 RMK A01 T02550040  RH  025%=      5-min Rain = 0
KGU1 140129Z 27006KT 25/04 A3002 RMK A01 T02540042  RH  026%=      5-min Rain = 0
KGU1 140130Z 28006KT 25/04 A3002 RMK A01 T02510042  RH  026%=      5-min Rain = 0
KGU1 140131Z 29006KT 25/04 A3002 RMK A01 T02500041  RH  026%=      5-min Rain = 0
KGU1 140132Z 30007KT 25/04 A3002 RMK A01 T02480041  RH  026%=      5-min Rain = 0
KGU1 140133Z 30007KT 25/04 A3002 RMK A01 T02480039  RH  026%=      5-min Rain = 0
KGU1 140134Z 30007KT 25/04 A3002 RMK A01 T02490039  RH  026%=      5-min Rain = 0
KGU1 140135Z 30007KT 25/04 A3002 RMK A01 T02490039  RH  026%=      5-min Rain = 0
KGU1 140136Z 30008KT 25/04 A3002 RMK A01 T02500037  RH  026%=      5-min Rain = 0
KGU1 140137Z 30008KT 25/04 A3002 RMK A01 T02510037  RH  025%=      5-min Rain = 0
KGU1 140138Z 30007KT 25/04 A3002 RMK A01 T02510037  RH  025%=      5-min Rain = 0
KGU1 140139Z 30009KT 25/04 A3002 RMK A01 T02510037  RH  025%=      5-min Rain = 0
KGU1 140140Z 30009KT 25/04 A3002 RMK A01 T02520037  RH  025%=      5-min Rain = 0
KGU1 140141Z 30009KT 25/04 A3002 RMK A01 T02520036  RH  025%=      5-min Rain = 0
KGU1 140142Z 30009KT 25/04 A3002 RMK A01 T02520036  RH  025%=      5-min Rain = 0
KGU1 140143Z 30009KT 25/04 A3002 RMK A01 T02520037  RH  025%=      5-min Rain = 0
KGU1 140144Z 30009KT 25/04 A3002 RMK A01 T02510037  RH  025%=      5-min Rain = 0
KGU1 140145Z 29010KT 25/04 A3002 RMK A01 T02510036  RH  025%=      5-min Rain = 0
KGU1 140146Z 29008KT 25/04 A3002 RMK A01 T02510035  RH  025%=      5-min Rain = 0
KGU1 140147Z 30006KT 25/04 A3002 RMK A01 T02510037  RH  025%=      5-min Rain = 0
KGU1 140148Z 30009KT 25/04 A3002 RMK A01 T02500036  RH  025%=      5-min Rain = 0
KGU1 140149Z 30008KT 25/04 A3002 RMK A01 T02500036  RH  025%=      5-min Rain = 0
KGU1 140150Z 30009KT 25/04 A3002 RMK A01 T02500036  RH  025%=      5-min Rain = 0
KGU1 140151Z 30009KT 25/04 A3002 RMK A01 T02500036  RH  025%=      5-min Rain = 0
KGU1 140152Z 30009KT 25/04 A3002 RMK A01 T02490035  RH  025%=      5-min Rain = 0
KGU1 140153Z 29009KT 25/04 A3002 RMK A01 T02490036  RH  025%=      5-min Rain = 0
KGU1 140154Z 30010KT 25/04 A3002 RMK A01 T02490035  RH  025%=      5-min Rain = 0
KGU1 140155Z 30010KT 25/04 A3002 RMK A01 T02490035  RH  025%=      5-min Rain = 0
KGU1 140156Z 29009KT 25/04 A3002 RMK A01 T02500035  RH  025%=      5-min Rain = 0
KGU1 140157Z 29009KT 25/04 A3002 RMK A01 T02490035  RH  025%=      5-min Rain = 0
KGU1 140158Z 27008KT 25/04 A3002 RMK A01 T02480035  RH  025%=      5-min Rain = 0
KGU1 140159Z 27007KT 25/04 A3003 RMK A01 T02470035  RH  026%=      5-min Rain = 0
KGU1 140200Z 28008KT 25/04 A3003 RMK A01 T02470035  RH  025%=      5-min Rain = 0
KGU1 140201Z 28007KT 25/03 A3003 RMK A01 T02480033  RH  025%=      5-min Rain = 0
KGU1 140202Z 28009KT 25/03 A3003 RMK A01 T02500031  RH  024%=      5-min Rain = 0
KGU1 140203Z 29009KT 25/03 A3003 RMK A01 T02520032  RH  024%=      5-min Rain = 0
KGU1 140204Z 29010KT 25/03 A3003 RMK A01 T02520033  RH  025%=      5-min Rain = 0
KGU1 140205Z 29009KT 25/03 A3003 RMK A01 T02510033  RH  025%=      5-min Rain = 0
KGU1 140206Z 29009KT 25/03 A3003 RMK A01 T02510034  RH  025%=      5-min Rain = 0
KGU1 140207Z 29008KT 25/03 A3003 RMK A01 T02500034  RH  025%=      5-min Rain = 0
KGU1 140208Z 29008KT 25/03 A3003 RMK A01 T02490034  RH  025%=      5-min Rain = 0
KGU1 140209Z 29008KT 25/03 A3002 RMK A01 T02480034  RH  025%=      5-min Rain = 0
KGU1 140210Z 27007KT 25/03 A3002 RMK A01 T02480034  RH  025%=      5-min Rain = 0
KGU1 140211Z 28009KT 25/03 A3002 RMK A01 T02480034  RH  025%=      5-min Rain = 0
KGU1 140212Z 30010KT 25/03 A3002 RMK A01 T02490032  RH  025%=      5-min Rain = 0
KGU1 140213Z 30010KT 25/03 A3002 RMK A01 T02510032  RH  024%=      5-min Rain = 0
KGU1 140214Z 29008KT 25/03 A3002 RMK A01 T02520032  RH  024%=      5-min Rain = 0
KGU1 140215Z 30009KT 25/03 A3002 RMK A01 T02510033  RH  024%=      5-min Rain = 0
KGU1 140216Z 29008KT 25/03 A3002 RMK A01 T02520033  RH  024%=      5-min Rain = 0
KGU1 140217Z 29009KT 25/03 A3002 RMK A01 T02510032  RH  024%=      5-min Rain = 0
KGU1 140218Z 29009KT 25/03 A3002 RMK A01 T02520032  RH  024%=      5-min Rain = 0
KGU1 140219Z 29008KT 25/03 A3002 RMK A01 T02530032  RH  024%=      5-min Rain = 0
KGU1 140220Z 29009KT 25/03 A3003 RMK A01 T02530032  RH  024%=      5-min Rain = 0
KGU1 140221Z 29008KT 25/03 A3003 RMK A01 T02520033  RH  024%=      5-min Rain = 0
KGU1 140222Z 29009KT 25/03 A3003 RMK A01 T02510033  RH  025%=      5-min Rain = 0
KGU1 140223Z 30012KT 25/03 A3003 RMK A01 T02510033  RH  025%=      5-min Rain = 0
KGU1 140224Z 30013G18KT 25/03 A3003 RMK A01 T02520032  RH  024%=      5-min Rain = 0
KGU1 140225Z 30015KT 25/03 A3004 RMK A01 T02530032  RH  024%=      5-min Rain = 0
KGU1 140226Z 30015KT 25/03 A3004 RMK A01 T02540032  RH  024%=      5-min Rain = 0
KGU1 140227Z 29017G22KT 26/03 A3004 RMK A01 T02580032  RH  023%=      5-min Rain = 0
KGU1 140228Z 29015G20KT 26/03 A3005 RMK A01 T02610031  RH  023%=      5-min Rain = 0
KGU1 140229Z 26016KT 26/03 A3004 RMK A01 T02640031  RH  022%=      5-min Rain = 0
KGU1 140230Z 27012KT 27/03 A3004 RMK A01 T02670032  RH  022%=      5-min Rain = 0
KGU1 140231Z 28013KT 27/03 A3004 RMK A01 T02680032  RH  022%=      5-min Rain = 0
KGU1 140232Z 29012KT 27/03 A3004 RMK A01 T02680032  RH  022%=      5-min Rain = 0
KGU1 140233Z 29009KT 27/03 A3004 RMK A01 T02690033  RH  022%=      5-min Rain = 0
KGU1 140234Z 32010KT 27/03 A3004 RMK A01 T02680033  RH  022%=      5-min Rain = 0
KGU1 140235Z 31011KT 27/03 A3004 RMK A01 T02680033  RH  022%=      5-min Rain = 0
KGU1 140236Z 32009KT 27/03 A3004 RMK A01 T02680031  RH  022%=      5-min Rain = 0
KGU1 140237Z 33008KT 27/03 A3004 RMK A01 T02690031  RH  022%=      5-min Rain = 0
KGU1 140238Z 33011KT 27/03 A3005 RMK A01 T02690032  RH  022%=      5-min Rain = 0
KGU1 140239Z 33012G19KT 27/03 A3005 RMK A01 T02680034  RH  022%=      5-min Rain = 0
KGU1 140240Z 33015KT 27/04 A3005 RMK A01 T02670036  RH  023%=      5-min Rain = 0
KGU1 140241Z 32015KT 27/04 A3005 RMK A01 T02670037  RH  023%=      5-min Rain = 0
KGU1 140242Z 32016KT 27/04 A3005 RMK A01 T02660038  RH  023%=      5-min Rain = 0
KGU1 140243Z 32019KT 27/04 A3005 RMK A01 T02660038  RH  023%=      5-min Rain = 0
KGU1 140244Z 33018KT 27/04 A3005 RMK A01 T02660037  RH  023%=      5-min Rain = 0
KGU1 140245Z 33019KT 27/04 A3005 RMK A01 T02660037  RH  023%=      5-min Rain = 0
KGU1 140246Z 33015KT 27/04 A3005 RMK A01 T02660037  RH  023%=      5-min Rain = 0
KGU1 140247Z 32019KT 27/04 A3005 RMK A01 T02660036  RH  023%=      5-min Rain = 0
KGU1 140248Z 33016KT 27/04 A3005 RMK A01 T02660037  RH  023%=      5-min Rain = 0
KGU1 140249Z 33015KT 27/04 A3005 RMK A01 T02650038  RH  023%=      5-min Rain = 0
KGU1 140250Z 34015KT 26/04 A3005 RMK A01 T02640038  RH  024%=      5-min Rain = 0
KGU1 140251Z 33015G20KT 26/04 A3005 RMK A01 T02630039  RH  024%=      5-min Rain = 0
KGU1 140252Z 34018KT 26/04 A3005 RMK A01 T02620039  RH  024%=      5-min Rain = 0
KGU1 140253Z 34019KT 26/04 A3005 RMK A01 T02610039  RH  024%=      5-min Rain = 0
KGU1 140254Z 33019KT 26/04 A3005 RMK A01 T02610038  RH  024%=      5-min Rain = 0
KGU1 140255Z 33016KT 26/04 A3005 RMK A01 T02610039  RH  024%=      5-min Rain = 0
KGU1 140256Z 33016G22KT 26/04 A3005 RMK A01 T02610039  RH  024%=      5-min Rain = 0
KGU1 140257Z 33020KT 26/04 A3005 RMK A01 T02610039  RH  024%=      5-min Rain = 0
KGU1 140258Z 33017KT 26/04 A3005 RMK A01 T02610039  RH  024%=      5-min Rain = 0
KGU1 140259Z 33017KT 26/04 A3005 RMK A01 T02610039  RH  024%=      5-min Rain = 0
KGU1 140300Z 33018KT 26/04 A3005 RMK A01 T02610038  RH  024%=      5-min Rain = 0
KGU1 140301Z 33015G21KT 26/04 A3005 RMK A01 T02620038  RH  024%=      5-min Rain = 0
KGU1 140302Z 33015KT 26/04 A3005 RMK A01 T02610038  RH  024%=      5-min Rain = 0
KGU1 140303Z 33015KT 26/04 A3005 RMK A01 T02620038  RH  024%=      5-min Rain = 0
KGU1 140304Z 34015KT 26/04 A3005 RMK A01 T02620038  RH  024%=      5-min Rain = 0
KGU1 140305Z 33016KT 26/04 A3005 RMK A01 T02620038  RH  024%=      5-min Rain = 0
KGU1 140306Z 34013KT 26/04 A3005 RMK A01 T02620039  RH  024%=      5-min Rain = 0
KGU1 140307Z 34018KT 26/04 A3006 RMK A01 T02600039  RH  024%=      5-min Rain = 0
KGU1 140308Z 34016G22KT 26/04 A3006 RMK A01 T02600039  RH  024%=      5-min Rain = 0
KGU1 140309Z 34018KT 26/04 A3006 RMK A01 T02600039  RH  024%=      5-min Rain = 0
KGU1 140310Z 34015KT 26/04 A3006 RMK A01 T02600040  RH  024%=      5-min Rain = 0
KGU1 140311Z 34014KT 26/04 A3006 RMK A01 T02590040  RH  025%=      5-min Rain = 0
KGU1 140312Z 34014G19KT 26/04 A3006 RMK A01 T02580040  RH  025%=      5-min Rain = 0
KGU1 140313Z 34015KT 26/04 A3006 RMK A01 T02570040  RH  025%=      5-min Rain = 0
KGU1 140314Z 34017G23KT 26/04 A3006 RMK A01 T02570040  RH  025%=      5-min Rain = 0
KGU1 140315Z 34015KT 26/04 A3006 RMK A01 T02570040  RH  025%=      5-min Rain = 0
KGU1 140316Z 34016KT 26/04 A3006 RMK A01 T02570040  RH  025%=      5-min Rain = 0
KGU1 140317Z 33016KT 26/04 A3006 RMK A01 T02570040  RH  025%=      5-min Rain = 0
KGU1 140318Z 33018KT 26/04 A3006 RMK A01 T02570040  RH  025%=      5-min Rain = 0
KGU1 140319Z 34017KT 26/04 A3006 RMK A01 T02570040  RH  025%=      5-min Rain = 0
KGU1 140320Z 34017KT 26/04 A3006 RMK A01 T02570040  RH  025%=      5-min Rain = 0
KGU1 140321Z 34015KT 26/04 A3006 RMK A01 T02570041  RH  025%=      5-min Rain = 0
KGU1 140322Z 34015KT 26/04 A3006 RMK A01 T02560041  RH  025%=      5-min Rain = 0
KGU1 140323Z 34014G21KT 26/04 A3006 RMK A01 T02550041  RH  025%=      5-min Rain = 0
KGU1 140324Z 34015KT 26/04 A3006 RMK A01 T02560040  RH  025%=      5-min Rain = 0
KGU1 140325Z 34015KT 26/04 A3006 RMK A01 T02560040  RH  025%=      5-min Rain = 0
KGU1 140326Z 34013KT 26/04 A3006 RMK A01 T02560040  RH  025%=      5-min Rain = 0
KGU1 140327Z 34014G19KT 26/04 A3006 RMK A01 T02550040  RH  025%=      5-min Rain = 0
KGU1 140328Z 34016KT 26/04 A3006 RMK A01 T02550040  RH  025%=      5-min Rain = 0
KGU1 140329Z 34013KT 26/04 A3006 RMK A01 T02550040  RH  025%=      5-min Rain = 0
KGU1 140330Z 33013KT 26/04 A3006 RMK A01 T02550040  RH  025%=      5-min Rain = 0
KGU1 140331Z 33012KT 25/04 A3006 RMK A01 T02540041  RH  025%=      5-min Rain = 0
KGU1 140332Z 33014KT 25/04 A3006 RMK A01 T02540040  RH  025%=      5-min Rain = 0
KGU1 140333Z 33014KT 26/04 A3006 RMK A01 T02550040  RH  025%=      5-min Rain = 0
KGU1 140334Z 33012KT 25/04 A3006 RMK A01 T02540040  RH  025%=      5-min Rain = 0
KGU1 140335Z 34013KT 25/04 A3006 RMK A01 T02540040  RH  025%=      5-min Rain = 0
KGU1 140336Z 33013KT 25/04 A3006 RMK A01 T02540040  RH  025%=      5-min Rain = 0
KGU1 140337Z 34013KT 25/04 A3006 RMK A01 T02540040  RH  025%=      5-min Rain = 0
KGU1 140338Z 33011KT 25/04 A3006 RMK A01 T02540040  RH  025%=      5-min Rain = 0
KGU1 140339Z 33014KT 25/04 A3006 RMK A01 T02540040  RH  025%=      5-min Rain = 0
KGU1 140340Z 33013KT 26/04 A3006 RMK A01 T02550040  RH  025%=      5-min Rain = 0
KGU1 140341Z 34012KT 26/04 A3006 RMK A01 T02550040  RH  025%=      5-min Rain = 0
KGU1 140342Z 34013KT 26/04 A3006 RMK A01 T02550039  RH  025%=      5-min Rain = 0
KGU1 140343Z 34013KT 26/04 A3006 RMK A01 T02560039  RH  025%=      5-min Rain = 0
KGU1 140344Z 34013KT 26/04 A3005 RMK A01 T02560039  RH  025%=      5-min Rain = 0
KGU1 140345Z 34015KT 26/04 A3006 RMK A01 T02570038  RH  025%=      5-min Rain = 0
KGU1 140346Z 34012KT 26/04 A3006 RMK A01 T02580039  RH  025%=      5-min Rain = 0
KGU1 140347Z 33011KT 26/04 A3006 RMK A01 T02570039  RH  025%=      5-min Rain = 0
KGU1 140348Z 33011KT 26/04 A3005 RMK A01 T02570039  RH  025%=      5-min Rain = 0
KGU1 140349Z 32010KT 26/04 A3005 RMK A01 T02560039  RH  025%=      5-min Rain = 0
KGU1 140350Z 31007KT 26/04 A3005 RMK A01 T02550040  RH  025%=      5-min Rain = 0
KGU1 140351Z 30007KT 25/04 A3005 RMK A01 T02540040  RH  025%=      5-min Rain = 0
KGU1 140352Z 30008KT 25/04 A3006 RMK A01 T02530040  RH  025%=      5-min Rain = 0
KGU1 140353Z 29010KT 25/04 A3006 RMK A01 T02520041  RH  026%=      5-min Rain = 0
KGU1 140354Z 30009KT 25/04 A3006 RMK A01 T02510041  RH  026%=      5-min Rain = 0
KGU1 140355Z 30008KT 25/04 A3006 RMK A01 T02510041  RH  026%=      5-min Rain = 0
KGU1 140356Z 30007KT 25/04 A3005 RMK A01 T02500041  RH  026%=      5-min Rain = 0
KGU1 140357Z 29010KT 25/04 A3005 RMK A01 T02490041  RH  026%=      5-min Rain = 0
KGU1 140358Z 29009KT 25/04 A3005 RMK A01 T02500040  RH  026%=      5-min Rain = 0
KGU1 140359Z 29010KT 25/04 A3005 RMK A01 T02500040  RH  026%=      5-min Rain = 0
KGU1 140400Z 28009KT 25/04 A3005 RMK A01 T02500040  RH  026%=      5-min Rain = 0
KGU1 140401Z 28009KT 25/04 A3005 RMK A01 T02500040  RH  026%=      5-min Rain = 0
KGU1 140402Z 28008KT 25/04 A3005 RMK A01 T02500040  RH  026%=      5-min Rain = 0
KGU1 140403Z 27011KT 25/04 A3005 RMK A01 T02510038  RH  026%=      5-min Rain = 0
KGU1 140404Z 27007KT 25/04 A3005 RMK A01 T02520038  RH  025%=      5-min Rain = 0
KGU1 140405Z 27008KT 25/04 A3005 RMK A01 T02520039  RH  025%=      5-min Rain = 0
KGU1 140406Z 27009KT 25/04 A3005 RMK A01 T02530038  RH  025%=      5-min Rain = 0
KGU1 140407Z 27011KT 25/04 A3005 RMK A01 T02530038  RH  025%=      5-min Rain = 0
KGU1 140408Z 26009KT 25/04 A3005 RMK A01 T02530038  RH  025%=      5-min Rain = 0
KGU1 140409Z 26009KT 25/04 A3005 RMK A01 T02540038  RH  025%=      5-min Rain = 0
KGU1 140410Z 27008KT 25/04 A3005 RMK A01 T02540038  RH  025%=      5-min Rain = 0
KGU1 140411Z 27007KT 25/04 A3005 RMK A01 T02540039  RH  025%=      5-min Rain = 0
KGU1 140412Z 28008KT 25/04 A3005 RMK A01 T02540039  RH  025%=      5-min Rain = 0
KGU1 140413Z 28008KT 25/04 A3005 RMK A01 T02530039  RH  025%=      5-min Rain = 0
KGU1 140414Z 28007KT 25/04 A3005 RMK A01 T02520039  RH  026%=      5-min Rain = 0
KGU1 140415Z 28007KT 25/04 A3005 RMK A01 T02510040  RH  026%=      5-min Rain = 0
KGU1 140416Z 28009KT 25/04 A3004 RMK A01 T02500039  RH  026%=      5-min Rain = 0
KGU1 140417Z 28009KT 25/04 A3004 RMK A01 T02500039  RH  026%=      5-min Rain = 0
KGU1 140418Z 27008KT 25/04 A3004 RMK A01 T02500039  RH  026%=      5-min Rain = 0
KGU1 140419Z 27009KT 25/04 A3004 RMK A01 T02500040  RH  026%=      5-min Rain = 0
KGU1 140420Z 27009KT 25/04 A3004 RMK A01 T02500039  RH  026%=      5-min Rain = 0
KGU1 140421Z 27010KT 25/04 A3004 RMK A01 T02500039  RH  026%=      5-min Rain = 0
KGU1 140422Z 26011KT 25/04 A3004 RMK A01 T02510038  RH  026%=      5-min Rain = 0
KGU1 140423Z 26010KT 25/04 A3004 RMK A01 T02520038  RH  025%=      5-min Rain = 0
KGU1 140424Z 27010KT 25/04 A3003 RMK A01 T02530037  RH  025%=      5-min Rain = 0
KGU1 140425Z 27010KT 25/04 A3003 RMK A01 T02540038  RH  025%=      5-min Rain = 0
KGU1 140426Z 27012KT 25/04 A3003 RMK A01 T02540037  RH  025%=      5-min Rain = 0
KGU1 140427Z 28013KT 26/04 A3003 RMK A01 T02550037  RH  025%=      5-min Rain = 0
KGU1 140428Z 27011KT 26/04 A3003 RMK A01 T02550037  RH  025%=      5-min Rain = 0
KGU1 140429Z 27010KT 26/04 A3003 RMK A01 T02560037  RH  025%=      5-min Rain = 0
KGU1 140430Z 27011KT 26/04 A3003 RMK A01 T02560037  RH  025%=      5-min Rain = 0
KGU1 140431Z 27011KT 26/04 A3003 RMK A01 T02570036  RH  024%=      5-min Rain = 0
KGU1 140432Z 27011KT 26/04 A3003 RMK A01 T02580036  RH  024%=      5-min Rain = 0
KGU1 140433Z 28010KT 26/04 A3003 RMK A01 T02580036  RH  024%=      5-min Rain = 0
KGU1 140434Z 28010KT 26/04 A3003 RMK A01 T02580036  RH  024%=      5-min Rain = 0
KGU1 140435Z 27010KT 26/04 A3003 RMK A01 T02580036  RH  024%=      5-min Rain = 0
KGU1 140436Z 28011KT 26/04 A3003 RMK A01 T02590035  RH  024%=      5-min Rain = 0
KGU1 140437Z 28009KT 26/04 A3003 RMK A01 T02600035  RH  024%=      5-min Rain = 0
KGU1 140438Z 28009KT 26/04 A3003 RMK A01 T02600036  RH  024%=      5-min Rain = 0
KGU1 140439Z 28009KT 26/04 A3003 RMK A01 T02600035  RH  024%=      5-min Rain = 0
KGU1 140440Z 28010KT 26/04 A3003 RMK A01 T02600035  RH  024%=      5-min Rain = 0
KGU1 140441Z 28009KT 26/04 A3003 RMK A01 T02600035  RH  024%=      5-min Rain = 0
KGU1 140442Z 27009KT 26/04 A3003 RMK A01 T02600035  RH  024%=      5-min Rain = 0
KGU1 140443Z 28010KT 26/04 A3003 RMK A01 T02590036  RH  024%=      5-min Rain = 0
KGU1 140444Z 28010KT 26/04 A3003 RMK A01 T02590035  RH  024%=      5-min Rain = 0
KGU1 140445Z 28010KT 26/04 A3003 RMK A01 T02590035  RH  024%=      5-min Rain = 0
KGU1 140446Z 28010KT 26/04 A3003 RMK A01 T02590035  RH  024%=      5-min Rain = 0
KGU1 140447Z 28009KT 26/04 A3003 RMK A01 T02590035  RH  024%=      5-min Rain = 0
KGU1 140448Z 28009KT 26/04 A3003 RMK A01 T02590035  RH  024%=      5-min Rain = 0
KGU1 140449Z 28010KT 26/04 A3003 RMK A01 T02580035  RH  024%=      5-min Rain = 0
KGU1 140450Z 28010KT 26/04 A3003 RMK A01 T02580035  RH  024%=      5-min Rain = 0
KGU1 140451Z 28010KT 26/04 A3003 RMK A01 T02580035  RH  024%=      5-min Rain = 0
KGU1 140452Z 28010KT 26/04 A3003 RMK A01 T02580035  RH  024%=      5-min Rain = 0
KGU1 140453Z 28009KT 26/04 A3003 RMK A01 T02580035  RH  024%=      5-min Rain = 0
KGU1 140454Z 28010KT 26/04 A3003 RMK A01 T02570035  RH  024%=      5-min Rain = 0
KGU1 140455Z 28010KT 26/03 A3003 RMK A01 T02580034  RH  024%=      5-min Rain = 0
KGU1 140456Z 28010KT 26/03 A3003 RMK A01 T02580034  RH  024%=      5-min Rain = 0
KGU1 140457Z 29011KT 26/03 A3003 RMK A01 T02580033  RH  024%=      5-min Rain = 0
KGU1 140458Z 28011KT 26/03 A3003 RMK A01 T02590033  RH  023%=      5-min Rain = 0
KGU1 140459Z 28011KT 26/03 A3003 RMK A01 T02600033  RH  023%=      5-min Rain = 0
KGU1 140500Z 28010KT 26/03 A3003 RMK A01 T02610033  RH  023%=      5-min Rain = 0

Page generated in 0.1477 seconds.